<?xml version='1.0' encoding='UTF-8'?><gpx version="1.1" creator="JPX - https://github.com/jenetics/jpx" xmlns="http://www.topografix.com/GPX/1/1"><trk><trkseg><trkpt lat="44.179672529874665" lon="9.585027253079112"><ele>44.0</ele><time>2026-04-19T15:10:29.5Z</time></trkpt><trkpt lat="44.17975789155737" lon="9.585007016187307"><ele>44.0</ele><time>2026-04-19T15:10:31.5Z</time></trkpt><trkpt lat="44.17985064103637" lon="9.584979758802143"><ele>44.0</ele><time>2026-04-19T15:10:33.5Z</time></trkpt><trkpt lat="44.17991747377316" lon="9.584948812403011"><ele>44.0</ele><time>2026-04-19T15:10:35Z</time></trkpt><trkpt lat="44.18000349200594" lon="9.584902876936745"><ele>44.0</ele><time>2026-04-19T15:10:37Z</time></trkpt><trkpt lat="44.18008961604581" lon="9.584855315231977"><ele>44.0</ele><time>2026-04-19T15:10:39Z</time></trkpt><trkpt lat="44.18018093894045" lon="9.584816443060358"><ele>38.0</ele><time>2026-04-19T15:10:41Z</time></trkpt><trkpt lat="44.1802652172577" lon="9.584768641136039"><ele>32.0</ele><time>2026-04-19T15:10:43Z</time></trkpt><trkpt lat="44.18034962593528" lon="9.58472037943518"><ele>26.0</ele><time>2026-04-19T15:10:45Z</time></trkpt><trkpt lat="44.18043922089338" lon="9.584670646077916"><ele>20.0</ele><time>2026-04-19T15:10:47Z</time></trkpt><trkpt lat="44.18053412765433" lon="9.58464679874473"><ele>14.0</ele><time>2026-04-19T15:10:49Z</time></trkpt><trkpt lat="44.180630044676064" lon="9.584601554296023"><ele>12.6</ele><time>2026-04-19T15:10:51Z</time></trkpt><trkpt lat="44.18072878750151" lon="9.58453841332735"><ele>11.2</ele><time>2026-04-19T15:10:53Z</time></trkpt><trkpt lat="44.18082435102976" lon="9.584473599620686"><ele>9.799999999999999</ele><time>2026-04-19T15:10:55Z</time></trkpt><trkpt lat="44.180925863379386" lon="9.584414822145574"><ele>8.399999999999999</ele><time>2026-04-19T15:10:57Z</time></trkpt><trkpt lat="44.181043580794665" lon="9.584376110091275"><ele>7.0</ele><time>2026-04-19T15:10:59Z</time></trkpt><trkpt lat="44.181127885984964" lon="9.584309247247582"><ele>7.0</ele><time>2026-04-19T15:11:01Z</time></trkpt><trkpt lat="44.18122411329763" lon="9.584283244149633"><ele>6.999999999999999</ele><time>2026-04-19T15:11:03Z</time></trkpt><trkpt lat="44.181326774086614" lon="9.584226665251956"><ele>6.999999999999999</ele><time>2026-04-19T15:11:05Z</time></trkpt><trkpt lat="44.181419729241405" lon="9.584141827901767"><ele>7.0</ele><time>2026-04-19T15:11:07Z</time></trkpt><trkpt lat="44.181526988094596" lon="9.584127878997451"><ele>7.0</ele><time>2026-04-19T15:11:09Z</time></trkpt><trkpt lat="44.18159297079062" lon="9.58412441336172"><ele>7.833333333333334</ele><time>2026-04-19T15:11:10Z</time></trkpt><trkpt lat="44.18171162461151" lon="9.584093814288911"><ele>8.666666666666668</ele><time>2026-04-19T15:11:12Z</time></trkpt><trkpt lat="44.181750566562336" lon="9.583935449443317"><ele>9.5</ele><time>2026-04-19T15:11:13Z</time></trkpt><trkpt lat="44.181815511632976" lon="9.583916499612306"><ele>10.333333333333334</ele><time>2026-04-19T15:11:14Z</time></trkpt><trkpt lat="44.18188351347925" lon="9.583897221964977"><ele>11.166666666666666</ele><time>2026-04-19T15:11:15Z</time></trkpt><trkpt lat="44.18194985595385" lon="9.58387573738168"><ele>12.0</ele><time>2026-04-19T15:11:16Z</time></trkpt><trkpt lat="44.18200815392686" lon="9.58383885939296"><ele>12.0</ele><time>2026-04-19T15:11:17Z</time></trkpt><trkpt lat="44.18205959883452" lon="9.583787451608854"><ele>12.0</ele><time>2026-04-19T15:11:18Z</time></trkpt><trkpt lat="44.18215827091439" lon="9.583686943393845"><ele>12.0</ele><time>2026-04-19T15:11:20Z</time></trkpt><trkpt lat="44.182260908600355" lon="9.583607045432528"><ele>12.0</ele><time>2026-04-19T15:11:22Z</time></trkpt><trkpt lat="44.182345266470215" lon="9.583501900719984"><ele>12.0</ele><time>2026-04-19T15:11:24Z</time></trkpt><trkpt lat="44.18244094616731" lon="9.583426412651093"><ele>10.6</ele><time>2026-04-19T15:11:26Z</time></trkpt><trkpt lat="44.18251660468738" lon="9.583333209177171"><ele>9.2</ele><time>2026-04-19T15:11:28Z</time></trkpt><trkpt lat="44.1825846191043" lon="9.583229225478112"><ele>7.8</ele><time>2026-04-19T15:11:30Z</time></trkpt><trkpt lat="44.18266254848733" lon="9.583121978451747"><ele>6.4</ele><time>2026-04-19T15:11:32Z</time></trkpt><trkpt lat="44.18272817836784" lon="9.583008980408199"><ele>5.0</ele><time>2026-04-19T15:11:34Z</time></trkpt><trkpt lat="44.18279899042487" lon="9.582880523106406"><ele>4.5</ele><time>2026-04-19T15:11:36Z</time></trkpt><trkpt lat="44.1829203040531" lon="9.582729532548903"><ele>4.0</ele><time>2026-04-19T15:11:39Z</time></trkpt><trkpt lat="44.182987965934515" lon="9.582620022820786"><ele>3.5</ele><time>2026-04-19T15:11:41Z</time></trkpt><trkpt lat="44.18306003358995" lon="9.582521211254152"><ele>3.0</ele><time>2026-04-19T15:11:43Z</time></trkpt><trkpt lat="44.18312344513396" lon="9.582406321175576"><ele>3.4</ele><time>2026-04-19T15:11:45Z</time></trkpt><trkpt lat="44.18318661323274" lon="9.582299840091295"><ele>3.8</ele><time>2026-04-19T15:11:47Z</time></trkpt><trkpt lat="44.18324067540036" lon="9.582190843200854"><ele>4.2</ele><time>2026-04-19T15:11:49Z</time></trkpt><trkpt lat="44.183292402181074" lon="9.582086183010585"><ele>4.6</ele><time>2026-04-19T15:11:51Z</time></trkpt><trkpt lat="44.183344210631425" lon="9.58199367780242"><ele>5.0</ele><time>2026-04-19T15:11:53Z</time></trkpt><trkpt lat="44.18340464298614" lon="9.581860804069507"><ele>5.0</ele><time>2026-04-19T15:11:56Z</time></trkpt><trkpt lat="44.1834445479697" lon="9.58176627973061"><ele>5.0</ele><time>2026-04-19T15:11:58Z</time></trkpt><trkpt lat="44.18347559028547" lon="9.581672162517073"><ele>5.0</ele><time>2026-04-19T15:12:00Z</time></trkpt><trkpt lat="44.183503419582415" lon="9.581580552480698"><ele>5.0</ele><time>2026-04-19T15:12:02Z</time></trkpt><trkpt lat="44.18353159720559" lon="9.581496353049408"><ele>5.0</ele><time>2026-04-19T15:12:04Z</time></trkpt><trkpt lat="44.18357488569145" lon="9.58138144989223"><ele>5.0</ele><time>2026-04-19T15:12:07Z</time></trkpt><trkpt lat="44.18362954150709" lon="9.58129920193399"><ele>5.0</ele><time>2026-04-19T15:12:09Z</time></trkpt><trkpt lat="44.18369371483001" lon="9.5812057289549"><ele>5.0</ele><time>2026-04-19T15:12:12Z</time></trkpt><trkpt lat="44.183765616898" lon="9.581129726245104"><ele>5.0</ele><time>2026-04-19T15:12:15Z</time></trkpt><trkpt lat="44.183811042426356" lon="9.581028054420337"><ele>5.0</ele><time>2026-04-19T15:12:18Z</time></trkpt><trkpt lat="44.183845470730496" lon="9.58095071770115"><ele>5.0</ele><time>2026-04-19T15:12:20Z</time></trkpt><trkpt lat="44.18389166797684" lon="9.580850450679202"><ele>5.0</ele><time>2026-04-19T15:12:22Z</time></trkpt><trkpt lat="44.18393953851299" lon="9.580742309091201"><ele>5.0</ele><time>2026-04-19T15:12:24Z</time></trkpt><trkpt lat="44.18398995179047" lon="9.580626947663816"><ele>5.0</ele><time>2026-04-19T15:12:26Z</time></trkpt><trkpt lat="44.18403847212686" lon="9.58049711704805"><ele>5.0</ele><time>2026-04-19T15:12:28Z</time></trkpt><trkpt lat="44.18408727730243" lon="9.580375156107985"><ele>5.0</ele><time>2026-04-19T15:12:30Z</time></trkpt><trkpt lat="44.18415228000074" lon="9.580274616723848"><ele>5.0</ele><time>2026-04-19T15:12:32Z</time></trkpt><trkpt lat="44.18420203097438" lon="9.580167578227575"><ele>6.5</ele><time>2026-04-19T15:12:34Z</time></trkpt><trkpt lat="44.184230896844326" lon="9.58004811439752"><ele>8.0</ele><time>2026-04-19T15:12:36Z</time></trkpt><trkpt lat="44.184283349786035" lon="9.579959149791577"><ele>9.5</ele><time>2026-04-19T15:12:38Z</time></trkpt><trkpt lat="44.1843293228787" lon="9.579874339637353"><ele>11.0</ele><time>2026-04-19T15:12:40Z</time></trkpt><trkpt lat="44.18436755105961" lon="9.579789588562877"><ele>12.500000000000002</ele><time>2026-04-19T15:12:42Z</time></trkpt><trkpt lat="44.18440936416346" lon="9.57970005166084"><ele>14.0</ele><time>2026-04-19T15:12:45Z</time></trkpt><trkpt lat="44.18445432473212" lon="9.579616437643034"><ele>14.000000000000002</ele><time>2026-04-19T15:12:48Z</time></trkpt><trkpt lat="44.18449671587869" lon="9.579528681866506"><ele>14.0</ele><time>2026-04-19T15:14:05Z</time></trkpt><trkpt lat="44.184554995143856" lon="9.57942014540618"><ele>14.0</ele><time>2026-04-19T15:14:08Z</time></trkpt><trkpt lat="44.184598924891645" lon="9.579338892795077"><ele>14.0</ele><time>2026-04-19T15:14:10Z</time></trkpt><trkpt lat="44.184650759615494" lon="9.579238361990047"><ele>14.000000000000002</ele><time>2026-04-19T15:14:12Z</time></trkpt><trkpt lat="44.184694102485416" lon="9.579128617486209"><ele>14.0</ele><time>2026-04-19T15:14:14Z</time></trkpt><trkpt lat="44.18471552798268" lon="9.579042183603226"><ele>14.75</ele><time>2026-04-19T15:14:16Z</time></trkpt><trkpt lat="44.184730243025776" lon="9.57892266465191"><ele>15.5</ele><time>2026-04-19T15:14:19Z</time></trkpt><trkpt lat="44.184732692883905" lon="9.578803051352795"><ele>16.25</ele><time>2026-04-19T15:14:22.025Z</time></trkpt><trkpt lat="44.18473806998424" lon="9.578693430913589"><ele>17.0</ele><time>2026-04-19T15:14:24.775Z</time></trkpt><trkpt lat="44.19055801794608" lon="9.569491068222444"><ele>17.0</ele><time>2026-04-19T15:17:18.198Z</time></trkpt><trkpt lat="44.190641347529905" lon="9.569422182180583"><ele>17.0</ele><time>2026-04-19T15:17:20Z</time></trkpt><trkpt lat="44.19072217637895" lon="9.569355627111904"><ele>17.0</ele><time>2026-04-19T15:17:21.75Z</time></trkpt><trkpt lat="44.190814219714085" lon="9.569292040710275"><ele>17.0</ele><time>2026-04-19T15:17:23.55Z</time></trkpt><trkpt lat="44.190892343960584" lon="9.569243492399238"><ele>17.0</ele><time>2026-04-19T15:17:25Z</time></trkpt><trkpt lat="44.19144537938115" lon="9.568923337559093"><ele>19.25</ele><time>2026-04-19T15:17:38.439Z</time></trkpt><trkpt lat="44.191518149454694" lon="9.568519096787533"><ele>21.5</ele><time>2026-04-19T15:17:43.35Z</time></trkpt><trkpt lat="44.19156160543136" lon="9.568435834994037"><ele>23.75</ele><time>2026-04-19T15:17:45.25Z</time></trkpt><trkpt lat="44.19159197645129" lon="9.568352968203618"><ele>26.0</ele><time>2026-04-19T15:17:47.15Z</time></trkpt><trkpt lat="44.19164068594996" lon="9.568276434215516"><ele>26.0</ele><time>2026-04-19T15:17:49.075Z</time></trkpt><trkpt lat="44.19168366387191" lon="9.568208573331551"><ele>26.0</ele><time>2026-04-19T15:17:51.025Z</time></trkpt><trkpt lat="44.19172833615399" lon="9.568135696628499"><ele>26.0</ele><time>2026-04-19T15:17:53.026Z</time></trkpt><trkpt lat="44.19177584718633" lon="9.568060116903286"><ele>26.0</ele><time>2026-04-19T15:17:55.025Z</time></trkpt><trkpt lat="44.19772879197899" lon="9.56057102894037"><ele>23.8</ele><time>2026-04-19T15:20:09Z</time></trkpt><trkpt lat="44.19777630251109" lon="9.560459699349826"><ele>21.6</ele><time>2026-04-19T15:20:10Z</time></trkpt><trkpt lat="44.19781695452467" lon="9.560321678802032"><ele>19.4</ele><time>2026-04-19T15:20:12Z</time></trkpt><trkpt lat="44.19788043736313" lon="9.560204347132759"><ele>17.2</ele><time>2026-04-19T15:20:14Z</time></trkpt><trkpt lat="44.197933960572875" lon="9.560090666647852"><ele>15.0</ele><time>2026-04-19T15:20:16Z</time></trkpt><trkpt lat="44.19800200125049" lon="9.55997711888138"><ele>15.0</ele><time>2026-04-19T15:20:18Z</time></trkpt><trkpt lat="44.198067075463" lon="9.559862703940658"><ele>15.0</ele><time>2026-04-19T15:20:20Z</time></trkpt><trkpt lat="44.19813282827695" lon="9.559750058581454"><ele>15.0</ele><time>2026-04-19T15:20:22.026Z</time></trkpt><trkpt lat="44.19819508748168" lon="9.559633246131325"><ele>15.0</ele><time>2026-04-19T15:20:24.025Z</time></trkpt><trkpt lat="44.199678040291026" lon="9.557000923261057"><ele>14.0</ele><time>2026-04-19T15:21:05.417Z</time></trkpt><trkpt lat="44.19977108250724" lon="9.557007910996083"><ele>13.0</ele><time>2026-04-19T15:21:07Z</time></trkpt><trkpt lat="44.199786829705914" lon="9.556906549219907"><ele>12.0</ele><time>2026-04-19T15:21:08Z</time></trkpt><trkpt lat="44.199835855605485" lon="9.556811092697075"><ele>11.0</ele><time>2026-04-19T15:21:10Z</time></trkpt><trkpt lat="44.19991396547374" lon="9.556731313855206"><ele>10.0</ele><time>2026-04-19T15:21:12Z</time></trkpt><trkpt lat="44.199990556200255" lon="9.556650098621269"><ele>9.0</ele><time>2026-04-19T15:21:14Z</time></trkpt><trkpt lat="44.200080318491075" lon="9.556588241412863"><ele>9.0</ele><time>2026-04-19T15:21:16Z</time></trkpt><trkpt lat="44.20016391245261" lon="9.556505085361819"><ele>9.0</ele><time>2026-04-19T15:21:18Z</time></trkpt><trkpt lat="44.200252027219896" lon="9.556444021811195"><ele>9.0</ele><time>2026-04-19T15:21:20Z</time></trkpt><trkpt lat="44.20032309105324" lon="9.556369223118752"><ele>9.0</ele><time>2026-04-19T15:21:22Z</time></trkpt><trkpt lat="44.2003804509481" lon="9.55628683084838"><ele>9.0</ele><time>2026-04-19T15:21:24Z</time></trkpt><trkpt lat="44.20045012753495" lon="9.55623219431782"><ele>9.0</ele><time>2026-04-19T15:21:26Z</time></trkpt><trkpt lat="44.200508811614604" lon="9.55617258701045"><ele>9.0</ele><time>2026-04-19T15:21:28Z</time></trkpt><trkpt lat="44.200562576900246" lon="9.556118640422609"><ele>9.0</ele><time>2026-04-19T15:21:30Z</time></trkpt><trkpt lat="44.20063401677542" lon="9.55605938382602"><ele>9.0</ele><time>2026-04-19T15:21:33Z</time></trkpt><trkpt lat="44.200567793910515" lon="9.556094877411892"><ele>9.0</ele><time>2026-04-19T15:22:41Z</time></trkpt><trkpt lat="44.20048958074469" lon="9.556168088843958"><ele>9.0</ele><time>2026-04-19T15:22:44Z</time></trkpt><trkpt lat="44.20044127317607" lon="9.556227358880376"><ele>9.0</ele><time>2026-04-19T15:22:46Z</time></trkpt><trkpt lat="44.20037845988403" lon="9.556283839660281"><ele>9.0</ele><time>2026-04-19T15:22:48Z</time></trkpt><trkpt lat="44.20032067392024" lon="9.556334089947503"><ele>9.0</ele><time>2026-04-19T15:22:50Z</time></trkpt><trkpt lat="44.20026359745992" lon="9.556403345727256"><ele>9.0</ele><time>2026-04-19T15:22:52Z</time></trkpt><trkpt lat="44.200196163316235" lon="9.556470368377258"><ele>9.0</ele><time>2026-04-19T15:22:54Z</time></trkpt><trkpt lat="44.200127531569635" lon="9.556541575466898"><ele>9.0</ele><time>2026-04-19T15:22:56Z</time></trkpt><trkpt lat="44.20005490666137" lon="9.556617275209188"><ele>9.000000000000002</ele><time>2026-04-19T15:22:58Z</time></trkpt><trkpt lat="44.19999151386113" lon="9.55670168901617"><ele>9.0</ele><time>2026-04-19T15:23:00Z</time></trkpt><trkpt lat="44.199930049969765" lon="9.556765418014336"><ele>9.0</ele><time>2026-04-19T15:23:02Z</time></trkpt><trkpt lat="44.199875766196406" lon="9.556823053917554"><ele>9.0</ele><time>2026-04-19T15:23:04Z</time></trkpt><trkpt lat="44.19981584483172" lon="9.556888565814456"><ele>9.0</ele><time>2026-04-19T15:23:07Z</time></trkpt><trkpt lat="44.19975287447484" lon="9.556931851190097"><ele>9.000000000000002</ele><time>2026-04-19T15:23:10Z</time></trkpt><trkpt lat="44.19970488621335" lon="9.557003911798214"><ele>9.0</ele><time>2026-04-19T15:23:12Z</time></trkpt><trkpt lat="44.19965017969947" lon="9.557075322590295"><ele>12.0</ele><time>2026-04-19T15:23:14Z</time></trkpt><trkpt lat="44.199588876197595" lon="9.557139628280334"><ele>15.0</ele><time>2026-04-19T15:23:16Z</time></trkpt><trkpt lat="44.19785294442805" lon="9.560328317496074"><ele>20.333333333333332</ele><time>2026-04-19T15:24:11.9Z</time></trkpt><trkpt lat="44.19779218517032" lon="9.560435349368014"><ele>25.666666666666664</ele><time>2026-04-19T15:24:13.8Z</time></trkpt><trkpt lat="44.19774316420547" lon="9.560524115684991"><ele>31.0</ele><time>2026-04-19T15:24:15.7Z</time></trkpt><trkpt lat="44.19769768440952" lon="9.560594335154983"><ele>36.33333333333333</ele><time>2026-04-19T15:24:17.6Z</time></trkpt><trkpt lat="44.19764113357554" lon="9.560684812749964"><ele>41.666666666666664</ele><time>2026-04-19T15:24:20.45Z</time></trkpt><trkpt lat="44.19761037191802" lon="9.560782625170669"><ele>47.0</ele><time>2026-04-19T15:24:23.3Z</time></trkpt><trkpt lat="44.19759244671866" lon="9.56088568258421"><ele>47.0</ele><time>2026-04-19T15:24:25.2Z</time></trkpt><trkpt lat="44.19757135807768" lon="9.560977597137763"><ele>47.0</ele><time>2026-04-19T15:24:27.1Z</time></trkpt><trkpt lat="44.19755995311067" lon="9.561074827447124"><ele>47.0</ele><time>2026-04-19T15:24:29.025Z</time></trkpt><trkpt lat="44.19754578348128" lon="9.561172098678533"><ele>47.0</ele><time>2026-04-19T15:24:31.026Z</time></trkpt><trkpt lat="44.197532299438706" lon="9.561270258849792"><ele>47.0</ele><time>2026-04-19T15:24:33.025Z</time></trkpt><trkpt lat="44.1974503255538" lon="9.56180088302614"><ele>6.0</ele><time>2026-04-19T15:24:46.954Z</time></trkpt><trkpt lat="44.19145155938541" lon="9.56811831922631"><ele>6.0</ele><time>2026-04-19T15:26:52.626Z</time></trkpt><trkpt lat="44.19137795789934" lon="9.568013162765485"><ele>6.0</ele><time>2026-04-19T15:26:56.426Z</time></trkpt><trkpt lat="44.19149296980764" lon="9.5679999427778"><ele>6.0</ele><time>2026-04-19T15:26:57.376Z</time></trkpt><trkpt lat="44.191479641486566" lon="9.567881643548112"><ele>6.0</ele><time>2026-04-19T15:27:00.226Z</time></trkpt><trkpt lat="44.19146918887724" lon="9.567783803263502"><ele>6.0</ele><time>2026-04-19T15:27:03.075Z</time></trkpt><trkpt lat="44.191507442046245" lon="9.567878253626661"><ele>29.0</ele><time>2026-04-19T15:27:13.7Z</time></trkpt><trkpt lat="44.190809586483134" lon="9.568854487737976"><ele>23.0</ele><time>2026-04-19T15:27:14.65Z</time></trkpt><trkpt lat="44.19054126679925" lon="9.569209629279618"><ele>17.0</ele><time>2026-04-19T15:27:15.6Z</time></trkpt><trkpt lat="44.19040233306861" lon="9.569380868224265"><ele>17.0</ele><time>2026-04-19T15:27:16.55Z</time></trkpt><trkpt lat="44.19034219871974" lon="9.569409160377084"><ele>17.0</ele><time>2026-04-19T15:27:17.5Z</time></trkpt><trkpt lat="44.19023655908956" lon="9.569355548887144"><ele>17.0</ele><time>2026-04-19T15:27:19.4Z</time></trkpt><trkpt lat="44.19019646148851" lon="9.569261919059352"><ele>17.0</ele><time>2026-04-19T15:27:20.35Z</time></trkpt><trkpt lat="44.190096984146905" lon="9.569195609066442"><ele>17.0</ele><time>2026-04-19T15:27:21.3Z</time></trkpt><trkpt lat="44.19002754466067" lon="9.56908662415066"><ele>17.0</ele><time>2026-04-19T15:27:22.25Z</time></trkpt><trkpt lat="44.18996014916889" lon="9.569009255595388"><ele>17.0</ele><time>2026-04-19T15:27:23.2Z</time></trkpt><trkpt lat="44.18989252714774" lon="9.568930637155916"><ele>17.0</ele><time>2026-04-19T15:27:24.15Z</time></trkpt><trkpt lat="44.18982129404367" lon="9.568836462252118"><ele>17.0</ele><time>2026-04-19T15:27:25.125Z</time></trkpt><trkpt lat="44.189748079883785" lon="9.568719410216168"><ele>17.0</ele><time>2026-04-19T15:27:26.076Z</time></trkpt><trkpt lat="44.189677968649335" lon="9.568625031800888"><ele>28.0</ele><time>2026-04-19T15:27:27.026Z</time></trkpt><trkpt lat="44.18455538761588" lon="9.579450353664411"><ele>25.666666666666668</ele><time>2026-04-19T15:29:50.45Z</time></trkpt><trkpt lat="44.184519830433615" lon="9.57955549534599"><ele>23.333333333333336</ele><time>2026-04-19T15:29:52.35Z</time></trkpt><trkpt lat="44.1844460051744" lon="9.579660335162464"><ele>21.0</ele><time>2026-04-19T15:29:54.25Z</time></trkpt><trkpt lat="44.18440041934284" lon="9.579740171489963"><ele>18.666666666666668</ele><time>2026-04-19T15:29:55.2Z</time></trkpt><trkpt lat="44.18435495647842" lon="9.579819549788319"><ele>16.333333333333336</ele><time>2026-04-19T15:29:56.15Z</time></trkpt><trkpt lat="44.18428790105228" lon="9.579945376034448"><ele>14.0</ele><time>2026-04-19T15:29:58.05Z</time></trkpt><trkpt lat="44.18421981294964" lon="9.580074358866572"><ele>14.0</ele><time>2026-04-19T15:30:00Z</time></trkpt><trkpt lat="44.184152244732445" lon="9.580199318516147"><ele>13.999999999999998</ele><time>2026-04-19T15:30:02Z</time></trkpt><trkpt lat="44.18409463867496" lon="9.58033519092681"><ele>13.999999999999998</ele><time>2026-04-19T15:30:04Z</time></trkpt><trkpt lat="44.18403543260147" lon="9.580446897431951"><ele>14.0</ele><time>2026-04-19T15:30:06Z</time></trkpt><trkpt lat="44.18399274691503" lon="9.580574934647215"><ele>14.0</ele><time>2026-04-19T15:30:08Z</time></trkpt><trkpt lat="44.183941435618756" lon="9.580695497615642"><ele>12.2</ele><time>2026-04-19T15:30:10Z</time></trkpt><trkpt lat="44.1838783469385" lon="9.580818728376578"><ele>10.399999999999999</ele><time>2026-04-19T15:30:12Z</time></trkpt><trkpt lat="44.183823624052586" lon="9.580926379106595"><ele>8.6</ele><time>2026-04-19T15:30:14Z</time></trkpt><trkpt lat="44.18377473272832" lon="9.581049300269338"><ele>6.8</ele><time>2026-04-19T15:30:16Z</time></trkpt><trkpt lat="44.18374184538599" lon="9.581159118386088"><ele>5.0</ele><time>2026-04-19T15:30:18Z</time></trkpt><trkpt lat="44.183659367793105" lon="9.581207681229415"><ele>5.0</ele><time>2026-04-19T15:30:20Z</time></trkpt><trkpt lat="44.18360183661605" lon="9.581311125633793"><ele>5.0</ele><time>2026-04-19T15:30:22Z</time></trkpt><trkpt lat="44.183552403431214" lon="9.581426245257708"><ele>5.0</ele><time>2026-04-19T15:30:24Z</time></trkpt><trkpt lat="44.18350922840675" lon="9.581549219512322"><ele>5.0</ele><time>2026-04-19T15:30:26Z</time></trkpt><trkpt lat="44.18346060471797" lon="9.581671802788112"><ele>5.0</ele><time>2026-04-19T15:30:28Z</time></trkpt><trkpt lat="44.183412278365026" lon="9.58178810269273"><ele>5.0</ele><time>2026-04-19T15:30:30Z</time></trkpt><trkpt lat="44.18336109129374" lon="9.581902941213077"><ele>5.0</ele><time>2026-04-19T15:30:32Z</time></trkpt><trkpt lat="44.183311758480464" lon="9.582018251851647"><ele>5.0</ele><time>2026-04-19T15:30:34Z</time></trkpt><trkpt lat="44.183262258322316" lon="9.58211278239331"><ele>5.0</ele><time>2026-04-19T15:30:36Z</time></trkpt><trkpt lat="44.18319534405155" lon="9.582221958086823"><ele>5.0</ele><time>2026-04-19T15:30:38Z</time></trkpt><trkpt lat="44.18313338303015" lon="9.582343232640726"><ele>5.0</ele><time>2026-04-19T15:30:40Z</time></trkpt><trkpt lat="44.18307372529494" lon="9.582458710144587"><ele>5.0</ele><time>2026-04-19T15:30:42Z</time></trkpt><trkpt lat="44.182999576449454" lon="9.582569133876435"><ele>5.0</ele><time>2026-04-19T15:30:44Z</time></trkpt><trkpt lat="44.182921565833304" lon="9.582689420388654"><ele>5.0</ele><time>2026-04-19T15:30:46Z</time></trkpt><trkpt lat="44.182851464221514" lon="9.582798621647235"><ele>5.0</ele><time>2026-04-19T15:30:48Z</time></trkpt><trkpt lat="44.18277287201665" lon="9.582899238827011"><ele>5.0</ele><time>2026-04-19T15:30:50Z</time></trkpt><trkpt lat="44.18270621241687" lon="9.583014934951258"><ele>5.0</ele><time>2026-04-19T15:30:52Z</time></trkpt><trkpt lat="44.182637864437986" lon="9.583122233467085"><ele>5.0</ele><time>2026-04-19T15:30:54Z</time></trkpt><trkpt lat="44.18255815800649" lon="9.58322464394431"><ele>5.0</ele><time>2026-04-19T15:30:56Z</time></trkpt><trkpt lat="44.18247390095628" lon="9.583328047378414"><ele>5.0</ele><time>2026-04-19T15:30:58Z</time></trkpt><trkpt lat="44.182381303308524" lon="9.583423926464016"><ele>4.333333333333334</ele><time>2026-04-19T15:31:00Z</time></trkpt><trkpt lat="44.18230347557289" lon="9.583515987772667"><ele>3.666666666666667</ele><time>2026-04-19T15:31:02Z</time></trkpt><trkpt lat="44.182230501505636" lon="9.583594427976527"><ele>3.0</ele><time>2026-04-19T15:31:04Z</time></trkpt><trkpt lat="44.18216002672705" lon="9.583653066842212"><ele>2.3333333333333335</ele><time>2026-04-19T15:31:06Z</time></trkpt><trkpt lat="44.182090862810654" lon="9.58371480810502"><ele>1.6666666666666665</ele><time>2026-04-19T15:31:08Z</time></trkpt><trkpt lat="44.18201084426981" lon="9.583764807886988"><ele>1.0</ele><time>2026-04-19T15:31:10Z</time></trkpt><trkpt lat="44.1819448262534" lon="9.583831323256256"><ele>2.833333333333333</ele><time>2026-04-19T15:31:12Z</time></trkpt><trkpt lat="44.18191121835013" lon="9.58393881749176"><ele>4.666666666666667</ele><time>2026-04-19T15:31:15Z</time></trkpt><trkpt lat="44.1819779443668" lon="9.583980403220997"><ele>6.5</ele><time>2026-04-19T15:31:18Z</time></trkpt><trkpt lat="44.182064034828386" lon="9.583937822361165"><ele>8.333333333333334</ele><time>2026-04-19T15:31:21Z</time></trkpt><trkpt lat="44.18213657094354" lon="9.583876863192732"><ele>10.166666666666666</ele><time>2026-04-19T15:31:23Z</time></trkpt><trkpt lat="44.182222381991345" lon="9.583791666121975"><ele>12.0</ele><time>2026-04-19T15:31:25Z</time></trkpt><trkpt lat="44.18231655797255" lon="9.583693995287454"><ele>10.6</ele><time>2026-04-19T15:31:27Z</time></trkpt><trkpt lat="44.18239625795264" lon="9.583617689987978"><ele>9.2</ele><time>2026-04-19T15:31:29Z</time></trkpt><trkpt lat="44.18248111027103" lon="9.583599337681282"><ele>7.8</ele><time>2026-04-19T15:31:31Z</time></trkpt><trkpt lat="44.182595084883836" lon="9.583610037097253"><ele>6.4</ele><time>2026-04-19T15:31:33Z</time></trkpt><trkpt lat="44.18266168310264" lon="9.583545169224871"><ele>5.0</ele><time>2026-04-19T15:31:34Z</time></trkpt><trkpt lat="44.18272954185907" lon="9.58345557318489"><ele>5.0</ele><time>2026-04-19T15:31:36Z</time></trkpt><trkpt lat="44.1827761044135" lon="9.583388117887365"><ele>5.0</ele><time>2026-04-19T15:31:38Z</time></trkpt><trkpt lat="44.18284928916047" lon="9.583478066776285"><ele>5.0</ele><time>2026-04-19T15:31:41Z</time></trkpt><trkpt lat="44.18291740651545" lon="9.583528178530761"><ele>5.0</ele><time>2026-04-19T15:31:43Z</time></trkpt><trkpt lat="44.182998582416374" lon="9.583577204564046"><ele>5.0</ele><time>2026-04-19T15:31:45Z</time></trkpt><trkpt lat="44.18309957081532" lon="9.583617590819076"><ele>5.0</ele><time>2026-04-19T15:31:47Z</time></trkpt><trkpt lat="44.18319089908227" lon="9.583661677237064"><ele>6.4</ele><time>2026-04-19T15:31:49Z</time></trkpt><trkpt lat="44.18329475497576" lon="9.583705846590563"><ele>7.8</ele><time>2026-04-19T15:31:51Z</time></trkpt><trkpt lat="44.18339203861532" lon="9.583788018670843"><ele>9.2</ele><time>2026-04-19T15:31:53Z</time></trkpt><trkpt lat="44.18348566673814" lon="9.583875098808603"><ele>10.6</ele><time>2026-04-19T15:31:55Z</time></trkpt><trkpt lat="44.18355679610422" lon="9.583969841998933"><ele>12.0</ele><time>2026-04-19T15:31:57Z</time></trkpt><trkpt lat="44.183624897479405" lon="9.584046420274653"><ele>12.0</ele><time>2026-04-19T15:31:59Z</time></trkpt><trkpt lat="44.1836786011518" lon="9.58412246026689"><ele>12.0</ele><time>2026-04-19T15:32:01Z</time></trkpt><trkpt lat="44.183750246131446" lon="9.58420252931305"><ele>12.0</ele><time>2026-04-19T15:32:04Z</time></trkpt><trkpt lat="44.1838280317781" lon="9.584142551699124"><ele>12.0</ele><time>2026-04-19T15:32:07Z</time></trkpt><trkpt lat="44.18386579467454" lon="9.584029500286519"><ele>12.0</ele><time>2026-04-19T15:32:09Z</time></trkpt><trkpt lat="44.1838901221082" lon="9.583903837081097"><ele>12.0</ele><time>2026-04-19T15:32:11Z</time></trkpt><trkpt lat="44.18392941385248" lon="9.583784965128178"><ele>11.8</ele><time>2026-04-19T15:32:13Z</time></trkpt><trkpt lat="44.18396076785847" lon="9.58366597946381"><ele>11.6</ele><time>2026-04-19T15:32:15Z</time></trkpt><trkpt lat="44.18399029626683" lon="9.58354116478964"><ele>11.4</ele><time>2026-04-19T15:32:17Z</time></trkpt><trkpt lat="44.184021107462414" lon="9.583407421008967"><ele>11.200000000000001</ele><time>2026-04-19T15:32:19Z</time></trkpt><trkpt lat="44.184055646035915" lon="9.583274522456861"><ele>11.0</ele><time>2026-04-19T15:32:21Z</time></trkpt><trkpt lat="44.18410696802789" lon="9.583112253920113"><ele>11.0</ele><time>2026-04-19T15:32:24Z</time></trkpt><trkpt lat="44.184155260152274" lon="9.58301081101596"><ele>11.0</ele><time>2026-04-19T15:32:28Z</time></trkpt><trkpt lat="44.18420744879773" lon="9.582926816601574"><ele>11.0</ele><time>2026-04-19T15:32:30Z</time></trkpt><trkpt lat="44.184232991283864" lon="9.582823558748718"><ele>11.0</ele><time>2026-04-19T15:32:32Z</time></trkpt><trkpt lat="44.18427345998983" lon="9.582709597298269"><ele>11.0</ele><time>2026-04-19T15:32:34Z</time></trkpt><trkpt lat="44.184323868182574" lon="9.582613195775796"><ele>11.0</ele><time>2026-04-19T15:32:36Z</time></trkpt><trkpt lat="44.184358645886164" lon="9.58253863989011"><ele>10.5</ele><time>2026-04-19T15:32:38Z</time></trkpt><trkpt lat="44.18428262398215" lon="9.582443805627335"><ele>10.0</ele><time>2026-04-19T15:32:42Z</time></trkpt><trkpt lat="44.1842101360896" lon="9.58237838829031"><ele>9.5</ele><time>2026-04-19T15:32:44Z</time></trkpt><trkpt lat="44.18414352518284" lon="9.582319861390216"><ele>9.0</ele><time>2026-04-19T15:32:46Z</time></trkpt><trkpt lat="44.18408732914417" lon="9.582268541595495"><ele>8.5</ele><time>2026-04-19T15:32:48Z</time></trkpt><trkpt lat="44.18402972419638" lon="9.582213975960608"><ele>8.0</ele><time>2026-04-19T15:32:50Z</time></trkpt><trkpt lat="44.183964864128264" lon="9.582173742266619"><ele>7.857142857142857</ele><time>2026-04-19T15:32:52Z</time></trkpt><trkpt lat="44.18390452844636" lon="9.58211962721173"><ele>7.7142857142857135</ele><time>2026-04-19T15:32:54Z</time></trkpt><trkpt lat="44.18384780452144" lon="9.582057295106095"><ele>7.571428571428571</ele><time>2026-04-19T15:32:56Z</time></trkpt><trkpt lat="44.18379249250054" lon="9.582001599258474"><ele>7.428571428571429</ele><time>2026-04-19T15:32:58Z</time></trkpt><trkpt lat="44.183738183683474" lon="9.58195295514456"><ele>7.285714285714286</ele><time>2026-04-19T15:33:00Z</time></trkpt><trkpt lat="44.183666668231325" lon="9.58188989770419"><ele>7.142857142857142</ele><time>2026-04-19T15:33:03Z</time></trkpt><trkpt lat="44.18358753124849" lon="9.581855385995738"><ele>7.0</ele><time>2026-04-19T15:33:06Z</time></trkpt><trkpt lat="44.1835645432492" lon="9.581956534895111"><ele>7.000000000000001</ele><time>2026-04-19T15:33:10Z</time></trkpt><trkpt lat="44.183541863051666" lon="9.582053800461363"><ele>7.0</ele><time>2026-04-19T15:33:13Z</time></trkpt><trkpt lat="44.1835038341835" lon="9.582160262735679"><ele>7.0</ele><time>2026-04-19T15:33:16Z</time></trkpt><trkpt lat="44.18346880309468" lon="9.582246033717908"><ele>7.0</ele><time>2026-04-19T15:33:18Z</time></trkpt><trkpt lat="44.18342410532767" lon="9.58232306439035"><ele>7.000000000000001</ele><time>2026-04-19T15:33:20Z</time></trkpt><trkpt lat="44.183404390927535" lon="9.582428554881282"><ele>7.0</ele><time>2026-04-19T15:33:23Z</time></trkpt><trkpt lat="44.18338708375644" lon="9.582545710403297"><ele>7.000000000000001</ele><time>2026-04-19T15:33:27Z</time></trkpt><trkpt lat="44.18335326454438" lon="9.582672314383188"><ele>7.0</ele><time>2026-04-19T15:33:30Z</time></trkpt><trkpt lat="44.18331008153644" lon="9.582758910789192"><ele>7.0</ele><time>2026-04-19T15:33:33Z</time></trkpt><trkpt lat="44.18326155426028" lon="9.582851249939893"><ele>7.0</ele><time>2026-04-19T15:33:36Z</time></trkpt><trkpt lat="44.18320968973906" lon="9.582920199784363"><ele>7.000000000000001</ele><time>2026-04-19T15:33:40Z</time></trkpt><trkpt lat="44.1832880196846" lon="9.583006311039195"><ele>7.0</ele><time>2026-04-19T15:33:46Z</time></trkpt><trkpt lat="44.18334318472772" lon="9.583072619385915"><ele>7.6</ele><time>2026-04-19T15:33:49Z</time></trkpt><trkpt lat="44.18340161988131" lon="9.583117625678332"><ele>8.2</ele><time>2026-04-19T15:33:50Z</time></trkpt><trkpt lat="44.183508407547954" lon="9.58318892230759"><ele>8.8</ele><time>2026-04-19T15:33:52Z</time></trkpt><trkpt lat="44.18360444407139" lon="9.58327257569381"><ele>9.4</ele><time>2026-04-19T15:33:54Z</time></trkpt><trkpt lat="44.1837136589579" lon="9.583360260184097"><ele>10.0</ele><time>2026-04-19T15:33:56Z</time></trkpt><trkpt lat="44.18380988883083" lon="9.583429375657799"><ele>10.0</ele><time>2026-04-19T15:33:58Z</time></trkpt><trkpt lat="44.183878283868076" lon="9.583510934937701"><ele>10.0</ele><time>2026-04-19T15:34:01Z</time></trkpt><trkpt lat="44.18388700890927" lon="9.583690955817966"><ele>10.0</ele><time>2026-04-19T15:34:07Z</time></trkpt><trkpt lat="44.18387290654678" lon="9.583794158477227"><ele>10.0</ele><time>2026-04-19T15:34:09Z</time></trkpt><trkpt lat="44.18384067801248" lon="9.583888182706445"><ele>10.0</ele><time>2026-04-19T15:34:11Z</time></trkpt><trkpt lat="44.18383623849236" lon="9.584016347341914"><ele>10.4</ele><time>2026-04-19T15:34:13Z</time></trkpt><trkpt lat="44.1838306705828" lon="9.584153008505414"><ele>10.8</ele><time>2026-04-19T15:34:15Z</time></trkpt><trkpt lat="44.18376554043562" lon="9.584225258232026"><ele>11.2</ele><time>2026-04-19T15:34:18Z</time></trkpt><trkpt lat="44.18370165764468" lon="9.58413380122061"><ele>11.6</ele><time>2026-04-19T15:34:20Z</time></trkpt><trkpt lat="44.18365035584157" lon="9.584030452799595"><ele>12.0</ele><time>2026-04-19T15:34:22Z</time></trkpt><trkpt lat="44.183591687243656" lon="9.583938749881948"><ele>12.0</ele><time>2026-04-19T15:34:24Z</time></trkpt><trkpt lat="44.183515110476826" lon="9.583873810720569"><ele>12.0</ele><time>2026-04-19T15:34:26Z</time></trkpt><trkpt lat="44.18343630968391" lon="9.583795958506524"><ele>12.0</ele><time>2026-04-19T15:34:28Z</time></trkpt><trkpt lat="44.18334681160288" lon="9.58372746907795"><ele>12.0</ele><time>2026-04-19T15:34:30Z</time></trkpt><trkpt lat="44.18325672016163" lon="9.58368025949334"><ele>12.0</ele><time>2026-04-19T15:34:32Z</time></trkpt><trkpt lat="44.183179492201795" lon="9.583630813937004"><ele>10.833333333333334</ele><time>2026-04-19T15:34:34Z</time></trkpt><trkpt lat="44.183087646789204" lon="9.58359175488802"><ele>9.666666666666666</ele><time>2026-04-19T15:34:36Z</time></trkpt><trkpt lat="44.18300649223018" lon="9.583545358831415"><ele>8.5</ele><time>2026-04-19T15:34:38Z</time></trkpt><trkpt lat="44.18293247113329" lon="9.58349570758845"><ele>7.333333333333334</ele><time>2026-04-19T15:34:40Z</time></trkpt><trkpt lat="44.18288485221199" lon="9.583425113848964"><ele>6.166666666666667</ele><time>2026-04-19T15:34:43Z</time></trkpt><trkpt lat="44.18290538804939" lon="9.583332443541059"><ele>5.0</ele><time>2026-04-19T15:34:47Z</time></trkpt><trkpt lat="44.18295789523494" lon="9.583240083176275"><ele>5.0</ele><time>2026-04-19T15:34:51Z</time></trkpt><trkpt lat="44.18299731781859" lon="9.583139050812912"><ele>5.0</ele><time>2026-04-19T15:34:55Z</time></trkpt><trkpt lat="44.18300732465379" lon="9.583026112253634"><ele>5.0</ele><time>2026-04-19T15:34:59Z</time></trkpt><trkpt lat="44.183042246934654" lon="9.582940876393636"><ele>5.0</ele><time>2026-04-19T15:35:02Z</time></trkpt><trkpt lat="44.18309993260358" lon="9.58285331843511"><ele>5.0</ele><time>2026-04-19T15:35:05Z</time></trkpt><trkpt lat="44.183136271489154" lon="9.58277989829233"><ele>5.0</ele><time>2026-04-19T15:35:07Z</time></trkpt><trkpt lat="44.18319090955184" lon="9.582702520685007"><ele>5.333333333333334</ele><time>2026-04-19T15:35:09Z</time></trkpt><trkpt lat="44.18323574384357" lon="9.58262862540012"><ele>5.666666666666667</ele><time>2026-04-19T15:35:11Z</time></trkpt><trkpt lat="44.183273660592484" lon="9.58253848113135"><ele>6.0</ele><time>2026-04-19T15:35:13Z</time></trkpt><trkpt lat="44.183315468704315" lon="9.582444834893026"><ele>6.333333333333334</ele><time>2026-04-19T15:35:15Z</time></trkpt><trkpt lat="44.183350291460194" lon="9.582343764019281"><ele>6.666666666666667</ele><time>2026-04-19T15:35:17Z</time></trkpt><trkpt lat="44.18338857213181" lon="9.582238618495815"><ele>7.0</ele><time>2026-04-19T15:35:19Z</time></trkpt><trkpt lat="44.18342370472849" lon="9.582138042169463"><ele>7.000000000000001</ele><time>2026-04-19T15:35:21Z</time></trkpt><trkpt lat="44.18346863568042" lon="9.582040494177944"><ele>7.0</ele><time>2026-04-19T15:35:23Z</time></trkpt><trkpt lat="44.1835097098037" lon="9.581944501258182"><ele>7.0</ele><time>2026-04-19T15:35:25Z</time></trkpt><trkpt lat="44.183546330931485" lon="9.581851584170602"><ele>7.0</ele><time>2026-04-19T15:35:27Z</time></trkpt><trkpt lat="44.183597106733124" lon="9.58177135299071"><ele>7.000000000000001</ele><time>2026-04-19T15:35:29Z</time></trkpt><trkpt lat="44.18365413516006" lon="9.581703359900498"><ele>7.0</ele><time>2026-04-19T15:35:31Z</time></trkpt><trkpt lat="44.18370103979886" lon="9.581617426552487"><ele>6.833333333333334</ele><time>2026-04-19T15:35:33Z</time></trkpt><trkpt lat="44.183765953209125" lon="9.581541314185058"><ele>6.666666666666667</ele><time>2026-04-19T15:35:35Z</time></trkpt><trkpt lat="44.18382696326618" lon="9.581500055073297"><ele>6.5</ele><time>2026-04-19T15:35:37Z</time></trkpt><trkpt lat="44.18388188546449" lon="9.581416846386986"><ele>6.333333333333334</ele><time>2026-04-19T15:35:40Z</time></trkpt><trkpt lat="44.183916551475114" lon="9.581341992320874"><ele>6.166666666666667</ele><time>2026-04-19T15:35:42Z</time></trkpt><trkpt lat="44.18395658542972" lon="9.58123722151176"><ele>6.0</ele><time>2026-04-19T15:35:44Z</time></trkpt><trkpt lat="44.18403698167607" lon="9.58120202118913"><ele>6.0</ele><time>2026-04-19T15:35:47Z</time></trkpt><trkpt lat="44.18411314744157" lon="9.581218220566543"><ele>6.0</ele><time>2026-04-19T15:35:51Z</time></trkpt><trkpt lat="44.1841596911821" lon="9.581283276420491"><ele>6.0</ele><time>2026-04-19T15:37:28Z</time></trkpt><trkpt lat="44.18420737455093" lon="9.581366492614176"><ele>6.0</ele><time>2026-04-19T15:37:32Z</time></trkpt><trkpt lat="44.18414756003271" lon="9.581441043584107"><ele>6.0</ele><time>2026-04-19T15:37:37Z</time></trkpt><trkpt lat="44.18410167076546" lon="9.581512745686423"><ele>6.0</ele><time>2026-04-19T15:37:39Z</time></trkpt><trkpt lat="44.184046961615735" lon="9.581614926036199"><ele>5.857142857142857</ele><time>2026-04-19T15:37:41Z</time></trkpt><trkpt lat="44.184000012055" lon="9.581704279824436"><ele>5.714285714285714</ele><time>2026-04-19T15:37:43Z</time></trkpt><trkpt lat="44.183976749601975" lon="9.581797394768195"><ele>5.571428571428571</ele><time>2026-04-19T15:37:45Z</time></trkpt><trkpt lat="44.183901594173854" lon="9.58184678955926"><ele>5.428571428571429</ele><time>2026-04-19T15:37:49Z</time></trkpt><trkpt lat="44.18384512520708" lon="9.581893032487946"><ele>5.285714285714286</ele><time>2026-04-19T15:37:54Z</time></trkpt><trkpt lat="44.183844935422385" lon="9.5819997694882"><ele>5.142857142857142</ele><time>2026-04-19T15:38:05Z</time></trkpt><trkpt lat="44.18388865982769" lon="9.582069229230044"><ele>5.0</ele><time>2026-04-19T15:38:08Z</time></trkpt><trkpt lat="44.183944982338105" lon="9.582127055502815"><ele>5.333333333333334</ele><time>2026-04-19T15:38:10Z</time></trkpt><trkpt lat="44.18400002973751" lon="9.582194691136904"><ele>5.666666666666667</ele><time>2026-04-19T15:38:12Z</time></trkpt><trkpt lat="44.18406979477943" lon="9.582292574452287"><ele>6.0</ele><time>2026-04-19T15:38:14Z</time></trkpt><trkpt lat="44.18413623855373" lon="9.582355278891812"><ele>6.333333333333334</ele><time>2026-04-19T15:38:16Z</time></trkpt><trkpt lat="44.184204925903266" lon="9.582387252389799"><ele>6.666666666666667</ele><time>2026-04-19T15:38:18Z</time></trkpt><trkpt lat="44.18426619945914" lon="9.582418661855874"><ele>7.0</ele><time>2026-04-19T15:38:20Z</time></trkpt><trkpt lat="44.18433030747504" lon="9.582442947910558"><ele>7.166666666666667</ele><time>2026-04-19T15:38:23Z</time></trkpt><trkpt lat="44.18439195662825" lon="9.582422795667327"><ele>7.333333333333334</ele><time>2026-04-19T15:38:28Z</time></trkpt><trkpt lat="44.18443989632859" lon="9.582331107467928"><ele>7.5</ele><time>2026-04-19T15:38:30Z</time></trkpt><trkpt lat="44.18450534665019" lon="9.582249804511918"><ele>7.666666666666666</ele><time>2026-04-19T15:38:32Z</time></trkpt><trkpt lat="44.18455849891822" lon="9.582139359011034"><ele>7.833333333333333</ele><time>2026-04-19T15:38:34Z</time></trkpt><trkpt lat="44.18462876316681" lon="9.5820279837709"><ele>8.0</ele><time>2026-04-19T15:38:36Z</time></trkpt><trkpt lat="44.184684084554654" lon="9.581939721746185"><ele>7.666666666666666</ele><time>2026-04-19T15:38:38Z</time></trkpt><trkpt lat="44.184687916592566" lon="9.581848584258402"><ele>7.333333333333333</ele><time>2026-04-19T15:38:40Z</time></trkpt><trkpt lat="44.18462729109702" lon="9.581757528035089"><ele>7.0</ele><time>2026-04-19T15:38:42Z</time></trkpt><trkpt lat="44.184542559926534" lon="9.581683167142321"><ele>6.666666666666666</ele><time>2026-04-19T15:38:44Z</time></trkpt><trkpt lat="44.184469460338654" lon="9.581587391924005"><ele>6.333333333333333</ele><time>2026-04-19T15:38:46Z</time></trkpt><trkpt lat="44.18440855260058" lon="9.5814943271634"><ele>6.0</ele><time>2026-04-19T15:38:48Z</time></trkpt><trkpt lat="44.18434038551923" lon="9.581398279912174"><ele>6.0</ele><time>2026-04-19T15:39:11Z</time></trkpt><trkpt lat="44.18429310669628" lon="9.581337565125478"><ele>6.0</ele><time>2026-04-19T15:40:15Z</time></trkpt><trkpt lat="44.18420965458339" lon="9.58150563981603"><ele>6.0</ele><time>2026-04-19T15:40:36.625Z</time></trkpt><trkpt lat="44.18416557104957" lon="9.581646537593095"><ele>6.0</ele><time>2026-04-19T15:40:39.45Z</time></trkpt><trkpt lat="44.18425081979302" lon="9.581548372792556"><ele>6.0</ele><time>2026-04-19T15:40:50Z</time></trkpt><trkpt lat="44.184325035569" lon="9.58155299502947"><ele>5.999999999999999</ele><time>2026-04-19T15:40:52Z</time></trkpt><trkpt lat="44.18426633324395" lon="9.581521009253855"><ele>6.0</ele><time>2026-04-19T15:42:23Z</time></trkpt><trkpt lat="44.184202475373894" lon="9.581432594414547"><ele>6.0</ele><time>2026-04-19T15:42:26Z</time></trkpt><trkpt lat="44.18415909969235" lon="9.581350980362124"><ele>6.0</ele><time>2026-04-19T15:42:28Z</time></trkpt><trkpt lat="44.18411157514826" lon="9.581273492160395"><ele>6.0</ele><time>2026-04-19T15:42:30Z</time></trkpt><trkpt lat="44.184042822045285" lon="9.581226933506914"><ele>5.999999999999999</ele><time>2026-04-19T15:42:32Z</time></trkpt><trkpt lat="44.183976468826486" lon="9.58125432960328"><ele>6.0</ele><time>2026-04-19T15:42:34Z</time></trkpt><trkpt lat="44.18391673440381" lon="9.581313079866296"><ele>5.857142857142857</ele><time>2026-04-19T15:42:36Z</time></trkpt><trkpt lat="44.18386753776571" lon="9.581385535561513"><ele>5.714285714285714</ele><time>2026-04-19T15:42:38Z</time></trkpt><trkpt lat="44.1838324049154" lon="9.58147570451822"><ele>5.571428571428571</ele><time>2026-04-19T15:42:40Z</time></trkpt><trkpt lat="44.18379263042978" lon="9.581561782693447"><ele>5.428571428571429</ele><time>2026-04-19T15:42:42Z</time></trkpt><trkpt lat="44.18374456810656" lon="9.581628821807922"><ele>5.285714285714286</ele><time>2026-04-19T15:42:44Z</time></trkpt><trkpt lat="44.1836888196858" lon="9.581684368353374"><ele>5.142857142857142</ele><time>2026-04-19T15:42:46Z</time></trkpt><trkpt lat="44.18362505595999" lon="9.581765498899117"><ele>5.0</ele><time>2026-04-19T15:42:49Z</time></trkpt><trkpt lat="44.183564350169064" lon="9.581839131078855"><ele>5.0</ele><time>2026-04-19T15:42:52Z</time></trkpt><trkpt lat="44.18350290922472" lon="9.581917581953695"><ele>5.0</ele><time>2026-04-19T15:42:55Z</time></trkpt><trkpt lat="44.183512655109844" lon="9.582011563611387"><ele>5.0</ele><time>2026-04-19T15:43:08Z</time></trkpt><trkpt lat="44.18347822557467" lon="9.582120372407744"><ele>5.0</ele><time>2026-04-19T15:43:13Z</time></trkpt><trkpt lat="44.18343499333995" lon="9.582208661480497"><ele>5.0</ele><time>2026-04-19T15:43:16Z</time></trkpt><trkpt lat="44.18338976079179" lon="9.582308936070424"><ele>5.0</ele><time>2026-04-19T15:43:19Z</time></trkpt><trkpt lat="44.18335340190325" lon="9.58239090992467"><ele>5.0</ele><time>2026-04-19T15:43:22Z</time></trkpt><trkpt lat="44.1833080067368" lon="9.582487877248894"><ele>5.0</ele><time>2026-04-19T15:43:25Z</time></trkpt><trkpt lat="44.183272810607626" lon="9.582600342645959"><ele>5.0</ele><time>2026-04-19T15:43:28Z</time></trkpt><trkpt lat="44.18324133981986" lon="9.582709545228813"><ele>5.0</ele><time>2026-04-19T15:43:31Z</time></trkpt><trkpt lat="44.183185287366925" lon="9.582782684214395"><ele>5.0</ele><time>2026-04-19T15:43:33Z</time></trkpt><trkpt lat="44.18313400657952" lon="9.58285353019284"><ele>5.0</ele><time>2026-04-19T15:43:35Z</time></trkpt><trkpt lat="44.18308295205403" lon="9.582930689476179"><ele>5.0</ele><time>2026-04-19T15:43:37Z</time></trkpt><trkpt lat="44.183033649464825" lon="9.583011696340279"><ele>5.0</ele><time>2026-04-19T15:43:39Z</time></trkpt><trkpt lat="44.18298245421828" lon="9.58307604357684"><ele>5.0</ele><time>2026-04-19T15:43:41Z</time></trkpt><trkpt lat="44.182934995759105" lon="9.583141684138996"><ele>5.0</ele><time>2026-04-19T15:43:43Z</time></trkpt><trkpt lat="44.18289191972121" lon="9.58321230296487"><ele>5.0</ele><time>2026-04-19T15:43:45Z</time></trkpt><trkpt lat="44.18285021822633" lon="9.583284809573057"><ele>5.0</ele><time>2026-04-19T15:43:47Z</time></trkpt><trkpt lat="44.18279590783985" lon="9.58333792101453"><ele>5.0</ele><time>2026-04-19T15:43:49Z</time></trkpt><trkpt lat="44.18272041740423" lon="9.583406702119943"><ele>5.0</ele><time>2026-04-19T15:43:52Z</time></trkpt><trkpt lat="44.18266984658194" lon="9.58345964463662"><ele>5.0</ele><time>2026-04-19T15:43:54Z</time></trkpt><trkpt lat="44.18261060803449" lon="9.583515070296118"><ele>5.0</ele><time>2026-04-19T15:43:56Z</time></trkpt><trkpt lat="44.18253732651545" lon="9.583571078555304"><ele>5.0</ele><time>2026-04-19T15:43:59Z</time></trkpt><trkpt lat="44.18246440488076" lon="9.583599024572772"><ele>5.0</ele><time>2026-04-19T15:44:02Z</time></trkpt><trkpt lat="44.182385384086594" lon="9.583621487529854"><ele>5.0</ele><time>2026-04-19T15:44:06Z</time></trkpt><trkpt lat="44.18232304497825" lon="9.583686297370013"><ele>6.166666666666667</ele><time>2026-04-19T15:44:09Z</time></trkpt><trkpt lat="44.18224775623056" lon="9.583756870658299"><ele>7.333333333333334</ele><time>2026-04-19T15:44:12Z</time></trkpt><trkpt lat="44.18218055152442" lon="9.583816197380239"><ele>8.5</ele><time>2026-04-19T15:44:15Z</time></trkpt><trkpt lat="44.18211597271842" lon="9.583866308171404"><ele>9.666666666666666</ele><time>2026-04-19T15:44:18Z</time></trkpt><trkpt lat="44.18205183794814" lon="9.583909571526528"><ele>10.833333333333334</ele><time>2026-04-19T15:44:21Z</time></trkpt><trkpt lat="44.18196991135096" lon="9.583899009342039"><ele>12.0</ele><time>2026-04-19T15:44:25Z</time></trkpt><trkpt lat="44.18190494411526" lon="9.583896642139893"><ele>12.0</ele><time>2026-04-19T15:44:27Z</time></trkpt><trkpt lat="44.18183032605684" lon="9.58391520842097"><ele>12.0</ele><time>2026-04-19T15:44:29Z</time></trkpt><trkpt lat="44.1817516974582" lon="9.583946355246564"><ele>12.0</ele><time>2026-04-19T15:44:31Z</time></trkpt><trkpt lat="44.18167249206527" lon="9.583990751652411"><ele>12.0</ele><time>2026-04-19T15:44:33Z</time></trkpt><trkpt lat="44.18159139551226" lon="9.584034789094092"><ele>12.0</ele><time>2026-04-19T15:44:35Z</time></trkpt><trkpt lat="44.18150974437851" lon="9.584082654830818"><ele>12.0</ele><time>2026-04-19T15:44:37Z</time></trkpt><trkpt lat="44.1814307087115" lon="9.584136240813537"><ele>11.0</ele><time>2026-04-19T15:44:39Z</time></trkpt><trkpt lat="44.1813519267099" lon="9.584188128778797"><ele>10.0</ele><time>2026-04-19T15:44:41Z</time></trkpt><trkpt lat="44.18126862951161" lon="9.584237130973573"><ele>9.0</ele><time>2026-04-19T15:44:43Z</time></trkpt><trkpt lat="44.18118085795546" lon="9.584284489281355"><ele>8.0</ele><time>2026-04-19T15:44:45Z</time></trkpt><trkpt lat="44.18109341932262" lon="9.584332419771611"><ele>7.0</ele><time>2026-04-19T15:44:47Z</time></trkpt><trkpt lat="44.18100743372961" lon="9.584373346263085"><ele>7.000000000000001</ele><time>2026-04-19T15:44:49Z</time></trkpt><trkpt lat="44.18092177036494" lon="9.584413440253345"><ele>7.0</ele><time>2026-04-19T15:44:51Z</time></trkpt><trkpt lat="44.18083685603987" lon="9.58445709195518"><ele>7.0</ele><time>2026-04-19T15:44:53Z</time></trkpt><trkpt lat="44.18075115452174" lon="9.584498271192771"><ele>7.0</ele><time>2026-04-19T15:44:55Z</time></trkpt><trkpt lat="44.180667556131624" lon="9.584539948161297"><ele>7.000000000000001</ele><time>2026-04-19T15:44:57Z</time></trkpt><trkpt lat="44.18058814987447" lon="9.584589548546537"><ele>7.0</ele><time>2026-04-19T15:44:59Z</time></trkpt><trkpt lat="44.180504856361416" lon="9.584626354574736"><ele>8.166666666666668</ele><time>2026-04-19T15:45:01Z</time></trkpt><trkpt lat="44.180421884816376" lon="9.584664086373218"><ele>9.333333333333334</ele><time>2026-04-19T15:45:03Z</time></trkpt><trkpt lat="44.180340246328925" lon="9.584708991012109"><ele>10.5</ele><time>2026-04-19T15:45:05Z</time></trkpt><trkpt lat="44.18026035308293" lon="9.584754353197791"><ele>11.666666666666668</ele><time>2026-04-19T15:45:07Z</time></trkpt><trkpt lat="44.180175251353646" lon="9.584799670333986"><ele>12.833333333333334</ele><time>2026-04-19T15:45:09Z</time></trkpt><trkpt lat="44.18009013795539" lon="9.58484686262353"><ele>14.0</ele><time>2026-04-19T15:45:11Z</time></trkpt><trkpt lat="44.18000197280506" lon="9.58487496649919"><ele>14.0</ele><time>2026-04-19T15:45:13Z</time></trkpt><trkpt lat="44.17991185071659" lon="9.584909505720937"><ele>13.999999999999998</ele><time>2026-04-19T15:45:15Z</time></trkpt><trkpt lat="44.17982002224874" lon="9.584956962556287"><ele>13.999999999999998</ele><time>2026-04-19T15:45:17Z</time></trkpt><trkpt lat="44.17973013388608" lon="9.585025198701034"><ele>14.0</ele><time>2026-04-19T15:45:19Z</time></trkpt><trkpt lat="44.17963931774727" lon="9.585092772162666"><ele>14.0</ele><time>2026-04-19T15:45:21Z</time></trkpt><trkpt lat="44.17955316115848" lon="9.585151890581393"><ele>19.0</ele><time>2026-04-19T15:45:23Z</time></trkpt><trkpt lat="44.179461837650365" lon="9.58517100929774"><ele>24.0</ele><time>2026-04-19T15:45:25Z</time></trkpt><trkpt lat="44.17937744533563" lon="9.585185893142016"><ele>29.0</ele><time>2026-04-19T15:45:27Z</time></trkpt><trkpt lat="44.17927071693359" lon="9.585213463177189"><ele>34.0</ele><time>2026-04-19T15:45:30Z</time></trkpt><trkpt lat="44.17918173131257" lon="9.585218058631618"><ele>39.0</ele><time>2026-04-19T15:45:32.025Z</time></trkpt><trkpt lat="44.179112787829396" lon="9.585227465326522"><ele>44.0</ele><time>2026-04-19T15:45:34.025Z</time></trkpt><trkpt lat="44.179016952232175" lon="9.585236367699942"><ele>29.5</ele><time>2026-04-19T15:45:37.025Z</time></trkpt><trkpt lat="44.17895199843715" lon="9.585248105168722"><ele>15.0</ele><time>2026-04-19T15:45:38.875Z</time></trkpt><trkpt lat="44.17517524828105" lon="9.588832179224577"><ele>15.0</ele><time>2026-04-19T15:47:17.05Z</time></trkpt><trkpt lat="44.17512730562536" lon="9.58871744278718"><ele>15.0</ele><time>2026-04-19T15:47:18Z</time></trkpt><trkpt lat="44.17507932429354" lon="9.588803794765047"><ele>15.0</ele><time>2026-04-19T15:47:20Z</time></trkpt><trkpt lat="44.175039863696256" lon="9.588929201377315"><ele>15.0</ele><time>2026-04-19T15:47:22Z</time></trkpt><trkpt lat="44.17499920562906" lon="9.589038552174596"><ele>15.0</ele><time>2026-04-19T15:47:24Z</time></trkpt><trkpt lat="44.17496821438483" lon="9.589152626889485"><ele>15.0</ele><time>2026-04-19T15:47:26Z</time></trkpt><trkpt lat="44.17492643368315" lon="9.589267259603334"><ele>15.0</ele><time>2026-04-19T15:47:28Z</time></trkpt><trkpt lat="44.17488494538759" lon="9.589378195933039"><ele>15.0</ele><time>2026-04-19T15:47:30Z</time></trkpt><trkpt lat="44.174843724352655" lon="9.589505870238513"><ele>15.0</ele><time>2026-04-19T15:47:32Z</time></trkpt><trkpt lat="44.17481935260346" lon="9.589622729071953"><ele>15.0</ele><time>2026-04-19T15:47:34Z</time></trkpt><trkpt lat="44.17478403011647" lon="9.589748037776623"><ele>15.0</ele><time>2026-04-19T15:47:36Z</time></trkpt><trkpt lat="44.174749458063054" lon="9.589872257117793"><ele>15.166666666666666</ele><time>2026-04-19T15:47:38Z</time></trkpt><trkpt lat="44.174712708201454" lon="9.589998374582473"><ele>15.333333333333332</ele><time>2026-04-19T15:47:40Z</time></trkpt><trkpt lat="44.174675079920505" lon="9.59012440749675"><ele>15.5</ele><time>2026-04-19T15:47:42Z</time></trkpt><trkpt lat="44.174652208410905" lon="9.590253473007081"><ele>15.666666666666666</ele><time>2026-04-19T15:47:44Z</time></trkpt><trkpt lat="44.17461630824239" lon="9.590365832825636"><ele>15.833333333333332</ele><time>2026-04-19T15:47:46Z</time></trkpt><trkpt lat="44.1745754085988" lon="9.590434301415101"><ele>16.0</ele><time>2026-04-19T15:47:48Z</time></trkpt><trkpt lat="44.17455431433617" lon="9.590519112247721"><ele>16.0</ele><time>2026-04-19T15:47:53.025Z</time></trkpt><trkpt lat="44.17458971634633" lon="9.590599005574076"><ele>16.0</ele><time>2026-04-19T15:47:56.025Z</time></trkpt><trkpt lat="44.17461351726575" lon="9.590698642314718"><ele>16.0</ele><time>2026-04-19T15:48:00.225Z</time></trkpt><trkpt lat="44.17463672937164" lon="9.59079354190959"><ele>16.0</ele><time>2026-04-19T15:48:04.776Z</time></trkpt><trkpt lat="44.174685732555474" lon="9.590983306985521"><ele>16.0</ele><time>2026-04-19T15:48:16.523Z</time></trkpt><trkpt lat="44.17333870670459" lon="9.596539838576224"><ele>18.5</ele><time>2026-04-19T15:49:12.05Z</time></trkpt><trkpt lat="44.173242955719886" lon="9.596603987012692"><ele>21.0</ele><time>2026-04-19T15:49:14Z</time></trkpt><trkpt lat="44.17314176390451" lon="9.596703429034473"><ele>23.5</ele><time>2026-04-19T15:49:16Z</time></trkpt><trkpt lat="44.173086299403984" lon="9.596841699081887"><ele>26.0</ele><time>2026-04-19T15:49:18Z</time></trkpt><trkpt lat="44.17305683298082" lon="9.596998583227629"><ele>19.0</ele><time>2026-04-19T15:49:20Z</time></trkpt><trkpt lat="44.173004628487874" lon="9.597125532175173"><ele>12.0</ele><time>2026-04-19T15:49:21.975Z</time></trkpt><trkpt lat="44.17295992870582" lon="9.597242277086163"><ele>5.0</ele><time>2026-04-19T15:49:23.776Z</time></trkpt><trkpt lat="44.173038296900344" lon="9.597659970862443"><ele>5.0</ele><time>2026-04-19T15:49:29.7Z</time></trkpt><trkpt lat="44.172995930132295" lon="9.59783450872992"><ele>5.0</ele><time>2026-04-19T15:49:30.65Z</time></trkpt><trkpt lat="44.172963163674154" lon="9.598057494299916"><ele>5.0</ele><time>2026-04-19T15:49:32.55Z</time></trkpt><trkpt lat="44.17297189802031" lon="9.598144916423676"><ele>5.0</ele><time>2026-04-19T15:49:33.5Z</time></trkpt><trkpt lat="44.172978916123036" lon="9.59830419068556"><ele>4.8</ele><time>2026-04-19T15:49:35.4Z</time></trkpt><trkpt lat="44.172971412367374" lon="9.598459400779728"><ele>4.6</ele><time>2026-04-19T15:49:37.3Z</time></trkpt><trkpt lat="44.17298209742072" lon="9.598607277103046"><ele>4.4</ele><time>2026-04-19T15:49:39.2Z</time></trkpt><trkpt lat="44.172993018012924" lon="9.598746945987806"><ele>4.2</ele><time>2026-04-19T15:49:41.1Z</time></trkpt><trkpt lat="44.172999228906605" lon="9.598872848592636"><ele>4.0</ele><time>2026-04-19T15:49:43Z</time></trkpt><trkpt lat="44.17299024575563" lon="9.59902353780651"><ele>4.0</ele><time>2026-04-19T15:49:45Z</time></trkpt><trkpt lat="44.17298184799" lon="9.599177568160975"><ele>4.0</ele><time>2026-04-19T15:49:47Z</time></trkpt><trkpt lat="44.17298042812333" lon="9.599324571559736"><ele>4.0</ele><time>2026-04-19T15:49:49Z</time></trkpt><trkpt lat="44.17298902065228" lon="9.599458984046802"><ele>4.0</ele><time>2026-04-19T15:49:51Z</time></trkpt><trkpt lat="44.17299446524084" lon="9.599578545708129"><ele>4.0</ele><time>2026-04-19T15:49:53Z</time></trkpt><trkpt lat="44.172994338186584" lon="9.599689047724059"><ele>3.8000000000000003</ele><time>2026-04-19T15:49:55Z</time></trkpt><trkpt lat="44.172993033356335" lon="9.599808012944528"><ele>3.6000000000000005</ele><time>2026-04-19T15:49:57Z</time></trkpt><trkpt lat="44.17298493268731" lon="9.599948612083365"><ele>3.4</ele><time>2026-04-19T15:49:59Z</time></trkpt><trkpt lat="44.17297178358044" lon="9.600106739210212"><ele>3.2</ele><time>2026-04-19T15:50:01Z</time></trkpt><trkpt lat="44.17296696773384" lon="9.600268129621014"><ele>3.0</ele><time>2026-04-19T15:50:03Z</time></trkpt><trkpt lat="44.172970798184686" lon="9.600414545120096"><ele>3.8</ele><time>2026-04-19T15:50:05Z</time></trkpt><trkpt lat="44.172975242430994" lon="9.600541417107726"><ele>4.6</ele><time>2026-04-19T15:50:07Z</time></trkpt><trkpt lat="44.17299273092256" lon="9.600660567650385"><ele>5.3999999999999995</ele><time>2026-04-19T15:50:09Z</time></trkpt><trkpt lat="44.17302911785427" lon="9.600779509657766"><ele>6.199999999999999</ele><time>2026-04-19T15:50:11.024Z</time></trkpt><trkpt lat="44.17306484600586" lon="9.600885732483697"><ele>7.0</ele><time>2026-04-19T15:50:13.025Z</time></trkpt><trkpt lat="44.17302121667829" lon="9.601108775874382"><ele>6.833333333333334</ele><time>2026-04-19T15:50:15Z</time></trkpt><trkpt lat="44.17296421198588" lon="9.601254996799696"><ele>6.666666666666667</ele><time>2026-04-19T15:50:16Z</time></trkpt><trkpt lat="44.172945363552515" lon="9.601390637702297"><ele>6.5</ele><time>2026-04-19T15:50:18Z</time></trkpt><trkpt lat="44.17294690712734" lon="9.601495823214643"><ele>6.333333333333334</ele><time>2026-04-19T15:50:20Z</time></trkpt><trkpt lat="44.17291070199322" lon="9.601573527245616"><ele>6.166666666666667</ele><time>2026-04-19T15:50:22Z</time></trkpt><trkpt lat="44.1728896694502" lon="9.601668822822022"><ele>6.0</ele><time>2026-04-19T15:50:24Z</time></trkpt><trkpt lat="44.17286734217001" lon="9.601762453436166"><ele>5.0</ele><time>2026-04-19T15:50:26.026Z</time></trkpt><trkpt lat="44.172888960458664" lon="9.6025857972439"><ele>5.0</ele><time>2026-04-19T15:50:33.5Z</time></trkpt><trkpt lat="44.17291643442969" lon="9.602689829521562"><ele>5.0</ele><time>2026-04-19T15:50:35.4Z</time></trkpt><trkpt lat="44.17292575390762" lon="9.60283412696596"><ele>5.0</ele><time>2026-04-19T15:50:37.3Z</time></trkpt><trkpt lat="44.17291655068796" lon="9.602977273492169"><ele>5.0</ele><time>2026-04-19T15:50:39.2Z</time></trkpt><trkpt lat="44.1729102633849" lon="9.603116631496055"><ele>5.0</ele><time>2026-04-19T15:50:41.1Z</time></trkpt><trkpt lat="44.17289761090123" lon="9.60324862001174"><ele>4.666666666666667</ele><time>2026-04-19T15:50:43Z</time></trkpt><trkpt lat="44.172880983388886" lon="9.603367947265145"><ele>4.333333333333334</ele><time>2026-04-19T15:50:45Z</time></trkpt><trkpt lat="44.17286744966024" lon="9.603478636147331"><ele>4.0</ele><time>2026-04-19T15:50:47Z</time></trkpt><trkpt lat="44.172844397082905" lon="9.603581732920043"><ele>3.666666666666667</ele><time>2026-04-19T15:50:49Z</time></trkpt><trkpt lat="44.17283411719389" lon="9.603686095675647"><ele>3.3333333333333335</ele><time>2026-04-19T15:50:51Z</time></trkpt><trkpt lat="44.17281955589645" lon="9.603809163625668"><ele>3.0</ele><time>2026-04-19T15:50:53Z</time></trkpt><trkpt lat="44.17279605352292" lon="9.603945023397428"><ele>3.0</ele><time>2026-04-19T15:50:55Z</time></trkpt><trkpt lat="44.17277603404464" lon="9.604076426333654"><ele>3.0</ele><time>2026-04-19T15:50:57Z</time></trkpt><trkpt lat="44.17276015387393" lon="9.604196727866691"><ele>3.0</ele><time>2026-04-19T15:50:59Z</time></trkpt><trkpt lat="44.172735993315776" lon="9.604309759165657"><ele>3.0</ele><time>2026-04-19T15:51:01Z</time></trkpt><trkpt lat="44.172702458159364" lon="9.604409784673313"><ele>3.0</ele><time>2026-04-19T15:51:03Z</time></trkpt><trkpt lat="44.172676936001174" lon="9.604508229162283"><ele>3.0</ele><time>2026-04-19T15:51:05Z</time></trkpt><trkpt lat="44.172650873120205" lon="9.60460475054678"><ele>3.833333333333333</ele><time>2026-04-19T15:51:07Z</time></trkpt><trkpt lat="44.17260654465435" lon="9.604689621840455"><ele>4.666666666666666</ele><time>2026-04-19T15:51:09Z</time></trkpt><trkpt lat="44.172571200050136" lon="9.604780727524755"><ele>5.5</ele><time>2026-04-19T15:51:11Z</time></trkpt><trkpt lat="44.17252643457826" lon="9.6048686747803"><ele>6.333333333333333</ele><time>2026-04-19T15:51:13Z</time></trkpt><trkpt lat="44.17249405852077" lon="9.604987795606787"><ele>7.166666666666666</ele><time>2026-04-19T15:51:15Z</time></trkpt><trkpt lat="44.17246418884294" lon="9.605092166357165"><ele>8.0</ele><time>2026-04-19T15:51:17Z</time></trkpt><trkpt lat="44.17242568584136" lon="9.605205711229399"><ele>7.999999999999999</ele><time>2026-04-19T15:51:19Z</time></trkpt><trkpt lat="44.17238139790694" lon="9.605313356696435"><ele>8.0</ele><time>2026-04-19T15:51:21Z</time></trkpt><trkpt lat="44.17234251674369" lon="9.60541592500081"><ele>8.0</ele><time>2026-04-19T15:51:23Z</time></trkpt><trkpt lat="44.172327884488105" lon="9.605520716285998"><ele>8.0</ele><time>2026-04-19T15:51:25Z</time></trkpt><trkpt lat="44.17231185770589" lon="9.605619016328724"><ele>7.999999999999999</ele><time>2026-04-19T15:51:27Z</time></trkpt><trkpt lat="44.17227033159258" lon="9.605699183623186"><ele>8.0</ele><time>2026-04-19T15:51:29Z</time></trkpt><trkpt lat="44.1722353450511" lon="9.605773210599313"><ele>7.833333333333333</ele><time>2026-04-19T15:51:31Z</time></trkpt><trkpt lat="44.17218915250596" lon="9.605880143249621"><ele>7.666666666666666</ele><time>2026-04-19T15:51:34Z</time></trkpt><trkpt lat="44.17214645315865" lon="9.605996427728005"><ele>7.5</ele><time>2026-04-19T15:51:37Z</time></trkpt><trkpt lat="44.17210869125172" lon="9.606106750445578"><ele>7.333333333333334</ele><time>2026-04-19T15:51:39Z</time></trkpt><trkpt lat="44.17205443961352" lon="9.606201016731847"><ele>7.166666666666667</ele><time>2026-04-19T15:51:41Z</time></trkpt><trkpt lat="44.17201841023119" lon="9.60631454433411"><ele>7.0</ele><time>2026-04-19T15:51:43Z</time></trkpt><trkpt lat="44.17196600974925" lon="9.606424628114597"><ele>7.0</ele><time>2026-04-19T15:51:45Z</time></trkpt><trkpt lat="44.17189135268599" lon="9.606518187723792"><ele>6.999999999999999</ele><time>2026-04-19T15:51:47Z</time></trkpt><trkpt lat="44.17182924088045" lon="9.606629884488889"><ele>6.999999999999999</ele><time>2026-04-19T15:51:49Z</time></trkpt><trkpt lat="44.171752442837565" lon="9.606727616108335"><ele>7.0</ele><time>2026-04-19T15:51:51Z</time></trkpt><trkpt lat="44.17168532383475" lon="9.606828590818848"><ele>7.0</ele><time>2026-04-19T15:51:53Z</time></trkpt><trkpt lat="44.17161438038552" lon="9.606926669107807"><ele>7.3999999999999995</ele><time>2026-04-19T15:51:55Z</time></trkpt><trkpt lat="44.17153979288559" lon="9.607015219220015"><ele>7.799999999999999</ele><time>2026-04-19T15:51:57Z</time></trkpt><trkpt lat="44.17146554306841" lon="9.607102763455831"><ele>8.2</ele><time>2026-04-19T15:51:59Z</time></trkpt><trkpt lat="44.17138771472801" lon="9.607177720800713"><ele>8.6</ele><time>2026-04-19T15:52:01Z</time></trkpt><trkpt lat="44.17131206557896" lon="9.607262058365897"><ele>9.0</ele><time>2026-04-19T15:52:03Z</time></trkpt><trkpt lat="44.17123464256223" lon="9.607347528686924"><ele>8.0</ele><time>2026-04-19T15:52:05Z</time></trkpt><trkpt lat="44.171171628492544" lon="9.607431873389418"><ele>7.0</ele><time>2026-04-19T15:52:07Z</time></trkpt><trkpt lat="44.171097397152515" lon="9.60750214670923"><ele>6.0</ele><time>2026-04-19T15:52:09Z</time></trkpt><trkpt lat="44.1710313507932" lon="9.607582944796158"><ele>5.0</ele><time>2026-04-19T15:52:11Z</time></trkpt><trkpt lat="44.17095720879759" lon="9.607683458498094"><ele>4.0</ele><time>2026-04-19T15:52:13Z</time></trkpt><trkpt lat="44.170885442460005" lon="9.607755865595088"><ele>3.8000000000000003</ele><time>2026-04-19T15:52:15Z</time></trkpt><trkpt lat="44.17081822063765" lon="9.60783776723036"><ele>3.6000000000000005</ele><time>2026-04-19T15:52:17Z</time></trkpt><trkpt lat="44.170739819498074" lon="9.607910479141404"><ele>3.4</ele><time>2026-04-19T15:52:19Z</time></trkpt><trkpt lat="44.170658869345665" lon="9.607974533982352"><ele>3.2</ele><time>2026-04-19T15:52:21Z</time></trkpt><trkpt lat="44.17058520499552" lon="9.608069555016273"><ele>3.0</ele><time>2026-04-19T15:52:23Z</time></trkpt><trkpt lat="44.17050752391849" lon="9.60815316582034"><ele>3.0</ele><time>2026-04-19T15:52:25Z</time></trkpt><trkpt lat="44.17043642534479" lon="9.608227934022208"><ele>3.0</ele><time>2026-04-19T15:52:27Z</time></trkpt><trkpt lat="44.170377722923" lon="9.60831739999543"><ele>3.0</ele><time>2026-04-19T15:52:29Z</time></trkpt><trkpt lat="44.17032495792033" lon="9.608400841095635"><ele>3.0</ele><time>2026-04-19T15:52:31Z</time></trkpt><trkpt lat="44.17031221397846" lon="9.608502476201442"><ele>3.0</ele><time>2026-04-19T15:52:33Z</time></trkpt><trkpt lat="44.17035363000219" lon="9.608573147052672"><ele>3.0</ele><time>2026-04-19T15:52:35Z</time></trkpt><trkpt lat="44.17042083353144" lon="9.60862191576826"><ele>3.0</ele><time>2026-04-19T15:52:40Z</time></trkpt><trkpt lat="44.170509880169604" lon="9.608616996753831"><ele>3.0</ele><time>2026-04-19T15:52:43Z</time></trkpt><trkpt lat="44.17059273913462" lon="9.608572314465778"><ele>3.0</ele><time>2026-04-19T15:52:46Z</time></trkpt><trkpt lat="44.17065493846921" lon="9.6086097613391"><ele>3.0</ele><time>2026-04-19T15:52:48Z</time></trkpt><trkpt lat="44.1707086161978" lon="9.6087102100286"><ele>3.0</ele><time>2026-04-19T15:52:50Z</time></trkpt><trkpt lat="44.170746874416764" lon="9.608843908151771"><ele>3.0</ele><time>2026-04-19T15:52:52Z</time></trkpt><trkpt lat="44.17077004349967" lon="9.608974305510495"><ele>3.8</ele><time>2026-04-19T15:52:54Z</time></trkpt><trkpt lat="44.170812156828624" lon="9.609069968294222"><ele>4.6</ele><time>2026-04-19T15:52:56Z</time></trkpt><trkpt lat="44.17089056845981" lon="9.6091286236194"><ele>5.3999999999999995</ele><time>2026-04-19T15:52:58Z</time></trkpt><trkpt lat="44.17096053719163" lon="9.609077834141548"><ele>6.199999999999999</ele><time>2026-04-19T15:53:00Z</time></trkpt><trkpt lat="44.17105406867873" lon="9.608997829859996"><ele>7.0</ele><time>2026-04-19T15:53:02Z</time></trkpt><trkpt lat="44.17114142850376" lon="9.608948718858153"><ele>7.000000000000001</ele><time>2026-04-19T15:53:04Z</time></trkpt><trkpt lat="44.17123191098846" lon="9.608889619916601"><ele>7.0</ele><time>2026-04-19T15:53:06Z</time></trkpt><trkpt lat="44.171321366958416" lon="9.608844429358184"><ele>7.0</ele><time>2026-04-19T15:53:08Z</time></trkpt><trkpt lat="44.17140768508031" lon="9.608781129650032"><ele>7.0</ele><time>2026-04-19T15:53:10Z</time></trkpt><trkpt lat="44.1714735448086" lon="9.608732088655428"><ele>7.000000000000001</ele><time>2026-04-19T15:53:12Z</time></trkpt><trkpt lat="44.171548129157" lon="9.608686727534621"><ele>7.0</ele><time>2026-04-19T15:53:14Z</time></trkpt><trkpt lat="44.17161630274023" lon="9.608682040031963"><ele>7.166666666666667</ele><time>2026-04-19T15:53:16Z</time></trkpt><trkpt lat="44.17166518249085" lon="9.608806475412322"><ele>7.333333333333334</ele><time>2026-04-19T15:53:19Z</time></trkpt><trkpt lat="44.17169308951825" lon="9.60894787928157"><ele>7.5</ele><time>2026-04-19T15:53:21Z</time></trkpt><trkpt lat="44.171718449988525" lon="9.60906448555672"><ele>7.666666666666666</ele><time>2026-04-19T15:53:23Z</time></trkpt><trkpt lat="44.17177466910913" lon="9.609112093879732"><ele>7.833333333333333</ele><time>2026-04-19T15:53:38Z</time></trkpt><trkpt lat="44.171813556980496" lon="9.60913761236683"><ele>8.0</ele><time>2026-04-19T15:59:41Z</time></trkpt><trkpt lat="44.17191692353674" lon="9.609122147839525"><ele>7.999999999999999</ele><time>2026-04-19T15:59:55Z</time></trkpt><trkpt lat="44.171871368042616" lon="9.609052323578638"><ele>8.0</ele><time>2026-04-19T16:00:13Z</time></trkpt><trkpt lat="44.171803187160016" lon="9.608950409757488"><ele>8.0</ele><time>2026-04-19T16:00:16Z</time></trkpt><trkpt lat="44.17175892434073" lon="9.608882552873828"><ele>8.0</ele><time>2026-04-19T16:00:18Z</time></trkpt><trkpt lat="44.17172205333277" lon="9.608791025228852"><ele>7.999999999999999</ele><time>2026-04-19T16:00:20Z</time></trkpt><trkpt lat="44.17167172650379" lon="9.608732035361559"><ele>8.0</ele><time>2026-04-19T16:00:22Z</time></trkpt><trkpt lat="44.171586265187365" lon="9.608686553632651"><ele>7.999999999999999</ele><time>2026-04-19T16:00:27Z</time></trkpt><trkpt lat="44.17152417270404" lon="9.60873133598425"><ele>8.0</ele><time>2026-04-19T16:00:29Z</time></trkpt><trkpt lat="44.171449184114685" lon="9.608775779602384"><ele>8.0</ele><time>2026-04-19T16:00:31Z</time></trkpt><trkpt lat="44.171370729444796" lon="9.608822768399868"><ele>8.0</ele><time>2026-04-19T16:00:33Z</time></trkpt><trkpt lat="44.17129828715015" lon="9.608871310548752"><ele>7.999999999999999</ele><time>2026-04-19T16:00:35Z</time></trkpt><trkpt lat="44.171214317311865" lon="9.608907784195527"><ele>8.0</ele><time>2026-04-19T16:00:37Z</time></trkpt><trkpt lat="44.17113329815915" lon="9.60895790025931"><ele>7.833333333333333</ele><time>2026-04-19T16:00:39Z</time></trkpt><trkpt lat="44.171052038935755" lon="9.60902281611593"><ele>7.666666666666666</ele><time>2026-04-19T16:00:41Z</time></trkpt><trkpt lat="44.17097001419094" lon="9.609069465246984"><ele>7.5</ele><time>2026-04-19T16:00:43Z</time></trkpt><trkpt lat="44.17091351170977" lon="9.609110399295687"><ele>7.333333333333334</ele><time>2026-04-19T16:00:45Z</time></trkpt><trkpt lat="44.170868132918535" lon="9.609180347435966"><ele>7.166666666666667</ele><time>2026-04-19T16:00:48Z</time></trkpt><trkpt lat="44.1708841623428" lon="9.609286417633173"><ele>7.0</ele><time>2026-04-19T16:00:50Z</time></trkpt><trkpt lat="44.17092370806103" lon="9.609419881725094"><ele>6.8</ele><time>2026-04-19T16:00:52Z</time></trkpt><trkpt lat="44.170964074589996" lon="9.609570919540129"><ele>6.6</ele><time>2026-04-19T16:00:54Z</time></trkpt><trkpt lat="44.17097908559462" lon="9.609743081544382"><ele>6.3999999999999995</ele><time>2026-04-19T16:00:56Z</time></trkpt><trkpt lat="44.17101941493449" lon="9.609814718870316"><ele>6.199999999999999</ele><time>2026-04-19T16:00:57Z</time></trkpt><trkpt lat="44.17105669466021" lon="9.609976192154333"><ele>6.0</ele><time>2026-04-19T16:00:59Z</time></trkpt><trkpt lat="44.17109203212161" lon="9.6101316664569"><ele>6.0</ele><time>2026-04-19T16:01:01Z</time></trkpt><trkpt lat="44.17112994221645" lon="9.61028122262397"><ele>6.0</ele><time>2026-04-19T16:01:03Z</time></trkpt><trkpt lat="44.171167239966366" lon="9.610426942404386"><ele>6.0</ele><time>2026-04-19T16:01:05Z</time></trkpt><trkpt lat="44.171212676255145" lon="9.610582036426115"><ele>6.0</ele><time>2026-04-19T16:01:07Z</time></trkpt><trkpt lat="44.1712496931872" lon="9.610744630510782"><ele>6.25</ele><time>2026-04-19T16:01:09Z</time></trkpt><trkpt lat="44.17128007594869" lon="9.610909524552762"><ele>6.5</ele><time>2026-04-19T16:01:11Z</time></trkpt><trkpt lat="44.17131588443483" lon="9.611069252321508"><ele>6.75</ele><time>2026-04-19T16:01:13Z</time></trkpt><trkpt lat="44.171359334588566" lon="9.611211261944542"><ele>7.0</ele><time>2026-04-19T16:01:15Z</time></trkpt><trkpt lat="44.17139754014234" lon="9.611365628754697"><ele>7.0</ele><time>2026-04-19T16:01:17Z</time></trkpt><trkpt lat="44.171430528074765" lon="9.611523450452564"><ele>7.0</ele><time>2026-04-19T16:01:19Z</time></trkpt><trkpt lat="44.17144449398974" lon="9.611684459640971"><ele>7.0</ele><time>2026-04-19T16:01:21Z</time></trkpt><trkpt lat="44.171466677734585" lon="9.611843331966844"><ele>7.0</ele><time>2026-04-19T16:01:23Z</time></trkpt><trkpt lat="44.171501813022864" lon="9.611992992401643"><ele>7.0</ele><time>2026-04-19T16:01:25Z</time></trkpt><trkpt lat="44.17153468882069" lon="9.612142329206934"><ele>7.0</ele><time>2026-04-19T16:01:27Z</time></trkpt><trkpt lat="44.171570148826724" lon="9.61229053176213"><ele>7.0</ele><time>2026-04-19T16:01:29Z</time></trkpt><trkpt lat="44.17155997797341" lon="9.612453430899386"><ele>7.0</ele><time>2026-04-19T16:01:31Z</time></trkpt><trkpt lat="44.17159266999768" lon="9.61260601957513"><ele>7.0</ele><time>2026-04-19T16:01:33Z</time></trkpt><trkpt lat="44.171625457541275" lon="9.612759054075573"><ele>6.999999999999999</ele><time>2026-04-19T16:01:35Z</time></trkpt><trkpt lat="44.171657716751135" lon="9.612909622610644"><ele>6.999999999999999</ele><time>2026-04-19T16:01:37Z</time></trkpt><trkpt lat="44.171689533969634" lon="9.613058138848466"><ele>7.0</ele><time>2026-04-19T16:01:39Z</time></trkpt><trkpt lat="44.17172123482474" lon="9.613206210788647"><ele>7.0</ele><time>2026-04-19T16:01:41Z</time></trkpt><trkpt lat="44.17175167282994" lon="9.613348888862074"><ele>7.0</ele><time>2026-04-19T16:01:43Z</time></trkpt><trkpt lat="44.17178339347154" lon="9.613497936182002"><ele>6.999999999999999</ele><time>2026-04-19T16:01:45Z</time></trkpt><trkpt lat="44.171814555789744" lon="9.613644360083303"><ele>6.999999999999999</ele><time>2026-04-19T16:01:47Z</time></trkpt><trkpt lat="44.17184462624397" lon="9.613787831944423"><ele>7.0</ele><time>2026-04-19T16:01:49Z</time></trkpt><trkpt lat="44.171873994900956" lon="9.613929926127433"><ele>7.0</ele><time>2026-04-19T16:01:51Z</time></trkpt><trkpt lat="44.17190632592946" lon="9.614063335976804"><ele>7.000000000000001</ele><time>2026-04-19T16:01:53Z</time></trkpt><trkpt lat="44.17193843069012" lon="9.614184870244292"><ele>7.0</ele><time>2026-04-19T16:01:55Z</time></trkpt><trkpt lat="44.17196879092734" lon="9.614269757119061"><ele>7.0</ele><time>2026-04-19T16:01:57Z</time></trkpt><trkpt lat="44.17195297849725" lon="9.614360574776045"><ele>7.0</ele><time>2026-04-19T16:02:00Z</time></trkpt><trkpt lat="44.17185406636275" lon="9.614390597214943"><ele>7.000000000000001</ele><time>2026-04-19T16:02:01Z</time></trkpt><trkpt lat="44.171778137766914" lon="9.614458588068803"><ele>7.0</ele><time>2026-04-19T16:02:03Z</time></trkpt><trkpt lat="44.17167951739851" lon="9.61454454290344"><ele>7.0</ele><time>2026-04-19T16:02:05Z</time></trkpt><trkpt lat="44.17157760648909" lon="9.614630717870138"><ele>7.0</ele><time>2026-04-19T16:02:07Z</time></trkpt><trkpt lat="44.171479625233566" lon="9.61470935177059"><ele>7.0</ele><time>2026-04-19T16:02:09Z</time></trkpt><trkpt lat="44.171380340424186" lon="9.614789196212348"><ele>7.0</ele><time>2026-04-19T16:02:11Z</time></trkpt><trkpt lat="44.17128167214447" lon="9.61486858736391"><ele>7.199999999999999</ele><time>2026-04-19T16:02:13Z</time></trkpt><trkpt lat="44.171187284342295" lon="9.614944523972067"><ele>7.3999999999999995</ele><time>2026-04-19T16:02:15Z</time></trkpt><trkpt lat="44.17109481627831" lon="9.615019788709207"><ele>7.6000000000000005</ele><time>2026-04-19T16:02:17Z</time></trkpt><trkpt lat="44.17101300027598" lon="9.615086755435449"><ele>7.800000000000001</ele><time>2026-04-19T16:02:19Z</time></trkpt><trkpt lat="44.17094705162939" lon="9.615140734659727"><ele>8.0</ele><time>2026-04-19T16:02:21Z</time></trkpt><trkpt lat="44.170880194187596" lon="9.615195457736021"><ele>7.999999999999999</ele><time>2026-04-19T16:02:23Z</time></trkpt><trkpt lat="44.170821769602604" lon="9.615278939202806"><ele>8.0</ele><time>2026-04-19T16:02:25Z</time></trkpt><trkpt lat="44.17074684438221" lon="9.615336418534373"><ele>8.0</ele><time>2026-04-19T16:02:28Z</time></trkpt><trkpt lat="44.17066570824148" lon="9.615397189340717"><ele>8.0</ele><time>2026-04-19T16:02:31Z</time></trkpt><trkpt lat="44.170609958519094" lon="9.615440719907202"><ele>7.999999999999999</ele><time>2026-04-19T16:02:33Z</time></trkpt><trkpt lat="44.170527290445094" lon="9.615503955902666"><ele>8.0</ele><time>2026-04-19T16:02:35Z</time></trkpt><trkpt lat="44.17043558844825" lon="9.615578457923739"><ele>9.600000000000001</ele><time>2026-04-19T16:02:37Z</time></trkpt><trkpt lat="44.17036223548717" lon="9.615642441903336"><ele>11.200000000000001</ele><time>2026-04-19T16:02:39Z</time></trkpt><trkpt lat="44.17030200890126" lon="9.615696098269876"><ele>12.8</ele><time>2026-04-19T16:02:41Z</time></trkpt><trkpt lat="44.170247372338196" lon="9.615794535744524"><ele>14.4</ele><time>2026-04-19T16:02:44Z</time></trkpt><trkpt lat="44.17026410031557" lon="9.61594481717121"><ele>16.0</ele><time>2026-04-19T16:02:47Z</time></trkpt><trkpt lat="44.17032947445697" lon="9.616057916125918"><ele>16.0</ele><time>2026-04-19T16:02:50Z</time></trkpt><trkpt lat="44.17036787936103" lon="9.616145774107054"><ele>16.0</ele><time>2026-04-19T16:02:52Z</time></trkpt><trkpt lat="44.17043039180637" lon="9.616249842449415"><ele>16.0</ele><time>2026-04-19T16:02:55Z</time></trkpt><trkpt lat="44.17053473856151" lon="9.616294015533558"><ele>16.0</ele><time>2026-04-19T16:02:57Z</time></trkpt><trkpt lat="44.170632458713065" lon="9.616339356160486"><ele>16.0</ele><time>2026-04-19T16:02:59Z</time></trkpt><trkpt lat="44.17072167717505" lon="9.616371571363922"><ele>15.666666666666666</ele><time>2026-04-19T16:03:01Z</time></trkpt><trkpt lat="44.17080429580336" lon="9.61640378811634"><ele>15.333333333333332</ele><time>2026-04-19T16:03:03Z</time></trkpt><trkpt lat="44.17087993013221" lon="9.616418457306224"><ele>15.0</ele><time>2026-04-19T16:03:05Z</time></trkpt><trkpt lat="44.17095551971732" lon="9.616421256699471"><ele>14.666666666666668</ele><time>2026-04-19T16:03:07Z</time></trkpt><trkpt lat="44.17102746577839" lon="9.61643093937125"><ele>14.333333333333334</ele><time>2026-04-19T16:03:09Z</time></trkpt><trkpt lat="44.1711255734953" lon="9.616480183568454"><ele>14.0</ele><time>2026-04-19T16:03:11Z</time></trkpt><trkpt lat="44.17122403152485" lon="9.616513144616288"><ele>14.000000000000002</ele><time>2026-04-19T16:03:13Z</time></trkpt><trkpt lat="44.17132274622547" lon="9.616555967634516"><ele>14.0</ele><time>2026-04-19T16:03:15Z</time></trkpt><trkpt lat="44.17140669688152" lon="9.61658481801076"><ele>14.0</ele><time>2026-04-19T16:03:17Z</time></trkpt><trkpt lat="44.171481750706334" lon="9.616608164988891"><ele>14.0</ele><time>2026-04-19T16:03:19Z</time></trkpt><trkpt lat="44.17157010643034" lon="9.616638508048098"><ele>14.000000000000002</ele><time>2026-04-19T16:03:21Z</time></trkpt><trkpt lat="44.17165234697867" lon="9.616663291941189"><ele>14.0</ele><time>2026-04-19T16:03:23Z</time></trkpt><trkpt lat="44.17173864204787" lon="9.616693048676778"><ele>14.500000000000002</ele><time>2026-04-19T16:03:26Z</time></trkpt><trkpt lat="44.171794784098196" lon="9.616744302271282"><ele>15.0</ele><time>2026-04-19T16:03:28Z</time></trkpt><trkpt lat="44.171868257641734" lon="9.616767713973239"><ele>15.5</ele><time>2026-04-19T16:03:30Z</time></trkpt><trkpt lat="44.17194573054068" lon="9.616790842151122"><ele>16.0</ele><time>2026-04-19T16:03:32Z</time></trkpt><trkpt lat="44.17203037861338" lon="9.616815221831233"><ele>16.5</ele><time>2026-04-19T16:03:34Z</time></trkpt><trkpt lat="44.172125288443794" lon="9.616837669687447"><ele>17.0</ele><time>2026-04-19T16:03:36Z</time></trkpt><trkpt lat="44.172215437501265" lon="9.616872036482594"><ele>17.0</ele><time>2026-04-19T16:03:38Z</time></trkpt><trkpt lat="44.172299715056795" lon="9.616907245052616"><ele>17.0</ele><time>2026-04-19T16:03:40Z</time></trkpt><trkpt lat="44.17246145975038" lon="9.617005992708558"><ele>17.0</ele><time>2026-04-19T16:03:44Z</time></trkpt><trkpt lat="44.17252440319428" lon="9.617084213922547"><ele>17.0</ele><time>2026-04-19T16:03:46Z</time></trkpt><trkpt lat="44.1725923119183" lon="9.617186278998691"><ele>17.0</ele><time>2026-04-19T16:03:48Z</time></trkpt><trkpt lat="44.172658064074874" lon="9.617320418883578"><ele>17.999999999999996</ele><time>2026-04-19T16:03:50Z</time></trkpt><trkpt lat="44.172695450083424" lon="9.617395902340006"><ele>19.0</ele><time>2026-04-19T16:03:51Z</time></trkpt><trkpt lat="44.17273588369633" lon="9.61747390941791"><ele>20.0</ele><time>2026-04-19T16:03:52Z</time></trkpt><trkpt lat="44.17277402738016" lon="9.617547090667772"><ele>21.0</ele><time>2026-04-19T16:03:53Z</time></trkpt><trkpt lat="44.172814415834004" lon="9.617617594035611"><ele>22.0</ele><time>2026-04-19T16:03:54Z</time></trkpt><trkpt lat="44.172857943336204" lon="9.61768112456615"><ele>22.999999999999996</ele><time>2026-04-19T16:03:55Z</time></trkpt><trkpt lat="44.1729397853123" lon="9.617804873502328"><ele>24.0</ele><time>2026-04-19T16:03:57Z</time></trkpt><trkpt lat="44.1729804438779" lon="9.617872008272283"><ele>22.0</ele><time>2026-04-19T16:03:58Z</time></trkpt><trkpt lat="44.17302422560823" lon="9.617942638193677"><ele>20.0</ele><time>2026-04-19T16:03:59Z</time></trkpt><trkpt lat="44.17307279477377" lon="9.618018342217624"><ele>18.0</ele><time>2026-04-19T16:04:00Z</time></trkpt><trkpt lat="44.173124497604675" lon="9.618101297653597"><ele>16.0</ele><time>2026-04-19T16:04:01Z</time></trkpt><trkpt lat="44.173180888052336" lon="9.618186493741893"><ele>14.0</ele><time>2026-04-19T16:04:02Z</time></trkpt><trkpt lat="44.1732386783708" lon="9.618275509778906"><ele>12.0</ele><time>2026-04-19T16:04:03Z</time></trkpt><trkpt lat="44.17328748722446" lon="9.618361554210262"><ele>12.0</ele><time>2026-04-19T16:04:04Z</time></trkpt><trkpt lat="44.17333522517868" lon="9.618433786135897"><ele>12.0</ele><time>2026-04-19T16:04:05Z</time></trkpt><trkpt lat="44.17342503914121" lon="9.618501102227988"><ele>12.0</ele><time>2026-04-19T16:04:06Z</time></trkpt><trkpt lat="44.17348670559804" lon="9.618582156274947"><ele>12.0</ele><time>2026-04-19T16:04:07Z</time></trkpt><trkpt lat="44.17354012495173" lon="9.618656505762337"><ele>12.0</ele><time>2026-04-19T16:04:08Z</time></trkpt><trkpt lat="44.17359010931089" lon="9.618745057019272"><ele>12.0</ele><time>2026-04-19T16:04:09Z</time></trkpt><trkpt lat="44.173639205350895" lon="9.618833716488746"><ele>12.285714285714285</ele><time>2026-04-19T16:04:10Z</time></trkpt><trkpt lat="44.17369070431902" lon="9.618924653687516"><ele>12.571428571428571</ele><time>2026-04-19T16:04:11Z</time></trkpt><trkpt lat="44.17373019207736" lon="9.61901523134544"><ele>12.857142857142858</ele><time>2026-04-19T16:04:12Z</time></trkpt><trkpt lat="44.173773333363016" lon="9.619099522305788"><ele>13.142857142857142</ele><time>2026-04-19T16:04:13Z</time></trkpt><trkpt lat="44.17381989564996" lon="9.619173213809164"><ele>13.428571428571429</ele><time>2026-04-19T16:04:14Z</time></trkpt><trkpt lat="44.1738592516402" lon="9.619250232079276"><ele>13.714285714285714</ele><time>2026-04-19T16:04:15Z</time></trkpt><trkpt lat="44.173892770857314" lon="9.619328533558773"><ele>14.0</ele><time>2026-04-19T16:04:16Z</time></trkpt><trkpt lat="44.17392739939846" lon="9.61940633660059"><ele>13.500000000000002</ele><time>2026-04-19T16:04:17Z</time></trkpt><trkpt lat="44.1739660912518" lon="9.619486219449449"><ele>13.0</ele><time>2026-04-19T16:04:18Z</time></trkpt><trkpt lat="44.174003593568095" lon="9.619557868542387"><ele>12.5</ele><time>2026-04-19T16:04:19Z</time></trkpt><trkpt lat="44.1740414101885" lon="9.619634892864058"><ele>12.0</ele><time>2026-04-19T16:04:20Z</time></trkpt><trkpt lat="44.17408135448616" lon="9.619708078027465"><ele>11.5</ele><time>2026-04-19T16:04:21Z</time></trkpt><trkpt lat="44.17415848224275" lon="9.619844586334713"><ele>11.0</ele><time>2026-04-19T16:04:23Z</time></trkpt><trkpt lat="44.17418996998021" lon="9.61992215643794"><ele>11.0</ele><time>2026-04-19T16:04:24Z</time></trkpt><trkpt lat="44.174256652487834" lon="9.620056222581765"><ele>11.0</ele><time>2026-04-19T16:04:26Z</time></trkpt><trkpt lat="44.174330444801406" lon="9.620180547666003"><ele>11.0</ele><time>2026-04-19T16:04:28Z</time></trkpt><trkpt lat="44.174376531330694" lon="9.620276489998965"><ele>11.0</ele><time>2026-04-19T16:04:30Z</time></trkpt><trkpt lat="44.174436448869784" lon="9.620338030790275"><ele>11.0</ele><time>2026-04-19T16:04:32Z</time></trkpt><trkpt lat="44.174494995375845" lon="9.620389269047346"><ele>11.0</ele><time>2026-04-19T16:04:34Z</time></trkpt><trkpt lat="44.174568392666345" lon="9.620463894892577"><ele>11.0</ele><time>2026-04-19T16:04:37Z</time></trkpt><trkpt lat="44.17463991681944" lon="9.620413993034582"><ele>11.0</ele><time>2026-04-19T16:04:44Z</time></trkpt><trkpt lat="44.17471257551336" lon="9.620383478332858"><ele>11.0</ele><time>2026-04-19T16:04:49Z</time></trkpt><trkpt lat="44.17477450769481" lon="9.620293088444921"><ele>11.0</ele><time>2026-04-19T16:04:52Z</time></trkpt><trkpt lat="44.17482011953202" lon="9.62021409987087"><ele>11.0</ele><time>2026-04-19T16:04:54Z</time></trkpt><trkpt lat="44.17486887007955" lon="9.620124662503796"><ele>11.200000000000001</ele><time>2026-04-19T16:04:56Z</time></trkpt><trkpt lat="44.17492596939889" lon="9.620037662955284"><ele>11.4</ele><time>2026-04-19T16:04:58Z</time></trkpt><trkpt lat="44.17497698503946" lon="9.619934882774182"><ele>11.6</ele><time>2026-04-19T16:05:00Z</time></trkpt><trkpt lat="44.17503775864088" lon="9.619836435501618"><ele>11.8</ele><time>2026-04-19T16:05:02Z</time></trkpt><trkpt lat="44.17513515733992" lon="9.619677426599086"><ele>12.0</ele><time>2026-04-19T16:05:05Z</time></trkpt><trkpt lat="44.17520532688082" lon="9.61956128474118"><ele>12.0</ele><time>2026-04-19T16:05:07Z</time></trkpt><trkpt lat="44.17529958817737" lon="9.61948213675696"><ele>12.0</ele><time>2026-04-19T16:05:09Z</time></trkpt><trkpt lat="44.17538701760108" lon="9.619411781248074"><ele>12.0</ele><time>2026-04-19T16:05:11Z</time></trkpt><trkpt lat="44.175483241837725" lon="9.619361286067814"><ele>12.0</ele><time>2026-04-19T16:05:13Z</time></trkpt><trkpt lat="44.17559789725328" lon="9.61937918331753"><ele>12.0</ele><time>2026-04-19T16:05:15Z</time></trkpt><trkpt lat="44.17571892605394" lon="9.61943899006224"><ele>12.166666666666666</ele><time>2026-04-19T16:05:17Z</time></trkpt><trkpt lat="44.17578379500613" lon="9.61948827994811"><ele>12.333333333333332</ele><time>2026-04-19T16:05:18Z</time></trkpt><trkpt lat="44.17584672687863" lon="9.61953988108369"><ele>12.5</ele><time>2026-04-19T16:05:19Z</time></trkpt><trkpt lat="44.175911549016924" lon="9.619591857462648"><ele>12.666666666666666</ele><time>2026-04-19T16:05:20Z</time></trkpt><trkpt lat="44.175981570303875" lon="9.619654147219618"><ele>12.833333333333332</ele><time>2026-04-19T16:05:21Z</time></trkpt><trkpt lat="44.17604967817916" lon="9.619712690763562"><ele>13.0</ele><time>2026-04-19T16:05:22Z</time></trkpt><trkpt lat="44.17610833460912" lon="9.61978437417523"><ele>12.999999999999998</ele><time>2026-04-19T16:05:23Z</time></trkpt><trkpt lat="44.176167241101446" lon="9.619841775403852"><ele>13.0</ele><time>2026-04-19T16:05:24Z</time></trkpt><trkpt lat="44.17622271271898" lon="9.61989913011493"><ele>13.0</ele><time>2026-04-19T16:05:25Z</time></trkpt><trkpt lat="44.176277250685914" lon="9.619946103487633"><ele>13.0</ele><time>2026-04-19T16:05:26Z</time></trkpt><trkpt lat="44.176376831564475" lon="9.620048441724446"><ele>12.999999999999998</ele><time>2026-04-19T16:05:28Z</time></trkpt><trkpt lat="44.17643405083122" lon="9.620098598458402"><ele>13.0</ele><time>2026-04-19T16:05:29Z</time></trkpt><trkpt lat="44.176538113100236" lon="9.620193740961295"><ele>13.142857142857142</ele><time>2026-04-19T16:05:31Z</time></trkpt><trkpt lat="44.176590661692664" lon="9.620242370895904"><ele>13.285714285714286</ele><time>2026-04-19T16:05:32Z</time></trkpt><trkpt lat="44.176644694692186" lon="9.620292754220326"><ele>13.428571428571429</ele><time>2026-04-19T16:05:33Z</time></trkpt><trkpt lat="44.1766980592135" lon="9.620344116714053"><ele>13.571428571428571</ele><time>2026-04-19T16:05:34Z</time></trkpt><trkpt lat="44.17674988130778" lon="9.62040249375206"><ele>13.714285714285715</ele><time>2026-04-19T16:05:35Z</time></trkpt><trkpt lat="44.17680180303745" lon="9.620456014002311"><ele>13.857142857142858</ele><time>2026-04-19T16:05:36Z</time></trkpt><trkpt lat="44.176852629620065" lon="9.62051438855866"><ele>14.0</ele><time>2026-04-19T16:05:37Z</time></trkpt><trkpt lat="44.17690040621802" lon="9.620583046071921"><ele>14.000000000000002</ele><time>2026-04-19T16:05:38Z</time></trkpt><trkpt lat="44.17694959818383" lon="9.620645375290914"><ele>14.0</ele><time>2026-04-19T16:05:39Z</time></trkpt><trkpt lat="44.176999159080665" lon="9.6207035119374"><ele>14.0</ele><time>2026-04-19T16:05:40Z</time></trkpt><trkpt lat="44.17704653671581" lon="9.620762775147405"><ele>14.0</ele><time>2026-04-19T16:05:41Z</time></trkpt><trkpt lat="44.177139679741224" lon="9.620874150383278"><ele>14.000000000000002</ele><time>2026-04-19T16:05:43Z</time></trkpt><trkpt lat="44.17723189497882" lon="9.620984747340346"><ele>14.0</ele><time>2026-04-19T16:05:45Z</time></trkpt><trkpt lat="44.177322610151606" lon="9.621096264761729"><ele>14.0</ele><time>2026-04-19T16:05:47Z</time></trkpt><trkpt lat="44.177414408042495" lon="9.621198698325765"><ele>13.999999999999998</ele><time>2026-04-19T16:05:49Z</time></trkpt><trkpt lat="44.177504575582134" lon="9.621305115700334"><ele>13.999999999999998</ele><time>2026-04-19T16:05:51Z</time></trkpt><trkpt lat="44.17760170431959" lon="9.621408967719363"><ele>14.0</ele><time>2026-04-19T16:05:53Z</time></trkpt><trkpt lat="44.177651540380985" lon="9.621467123802985"><ele>14.0</ele><time>2026-04-19T16:05:54Z</time></trkpt><trkpt lat="44.17775154805502" lon="9.621580428014326"><ele>14.0</ele><time>2026-04-19T16:05:56Z</time></trkpt><trkpt lat="44.177799845807186" lon="9.621638079242281"><ele>13.999999999999998</ele><time>2026-04-19T16:05:57Z</time></trkpt><trkpt lat="44.17789203629135" lon="9.621740134203872"><ele>13.999999999999998</ele><time>2026-04-19T16:05:59Z</time></trkpt><trkpt lat="44.17797480764934" lon="9.62183519322906"><ele>14.0</ele><time>2026-04-19T16:06:01Z</time></trkpt><trkpt lat="44.17806009010508" lon="9.621931004201734"><ele>14.0</ele><time>2026-04-19T16:06:03Z</time></trkpt><trkpt lat="44.17813599216897" lon="9.622019772397229"><ele>14.166666666666668</ele><time>2026-04-19T16:06:05Z</time></trkpt><trkpt lat="44.178166070976786" lon="9.622108645895306"><ele>14.333333333333334</ele><time>2026-04-19T16:06:08Z</time></trkpt><trkpt lat="44.1780961196895" lon="9.622165557383646"><ele>14.5</ele><time>2026-04-19T16:06:12Z</time></trkpt><trkpt lat="44.17802698028937" lon="9.622227973699378"><ele>14.666666666666668</ele><time>2026-04-19T16:06:15Z</time></trkpt><trkpt lat="44.1779657072534" lon="9.622315956367476"><ele>14.833333333333334</ele><time>2026-04-19T16:06:17Z</time></trkpt><trkpt lat="44.1779016006034" lon="9.622409546628182"><ele>15.0</ele><time>2026-04-19T16:06:19Z</time></trkpt><trkpt lat="44.17784812396911" lon="9.622497766635679"><ele>15.0</ele><time>2026-04-19T16:06:21Z</time></trkpt><trkpt lat="44.177803696586025" lon="9.62256812046347"><ele>15.0</ele><time>2026-04-19T16:06:26Z</time></trkpt><trkpt lat="44.177862786857176" lon="9.622636867986719"><ele>15.0</ele><time>2026-04-19T16:06:31Z</time></trkpt><trkpt lat="44.177939680113504" lon="9.622643815176762"><ele>15.0</ele><time>2026-04-19T16:06:34Z</time></trkpt><trkpt lat="44.17800928344855" lon="9.622680286519486"><ele>15.0</ele><time>2026-04-19T16:06:37Z</time></trkpt><trkpt lat="44.178050205444876" lon="9.622599009762578"><ele>15.0</ele><time>2026-04-19T16:06:55Z</time></trkpt><trkpt lat="44.17809198527988" lon="9.62252940611738"><ele>15.0</ele><time>2026-04-19T16:06:57Z</time></trkpt><trkpt lat="44.1781432893768" lon="9.622452725746042"><ele>15.0</ele><time>2026-04-19T16:06:59Z</time></trkpt><trkpt lat="44.178194218542615" lon="9.622381792766348"><ele>15.0</ele><time>2026-04-19T16:07:01Z</time></trkpt><trkpt lat="44.178233258066086" lon="9.622294398428917"><ele>15.0</ele><time>2026-04-19T16:07:03Z</time></trkpt><trkpt lat="44.17824522965754" lon="9.622180212520632"><ele>15.0</ele><time>2026-04-19T16:07:06Z</time></trkpt><trkpt lat="44.178180466452154" lon="9.622088497345176"><ele>15.0</ele><time>2026-04-19T16:07:09Z</time></trkpt><trkpt lat="44.17815908786227" lon="9.621998392332294"><ele>15.0</ele><time>2026-04-19T16:07:11Z</time></trkpt><trkpt lat="44.17809743370011" lon="9.621908115035522"><ele>14.8</ele><time>2026-04-19T16:07:13Z</time></trkpt><trkpt lat="44.17801942087815" lon="9.621825858187314"><ele>14.6</ele><time>2026-04-19T16:07:15Z</time></trkpt><trkpt lat="44.17793663685832" lon="9.621739617487625"><ele>14.399999999999999</ele><time>2026-04-19T16:07:17Z</time></trkpt><trkpt lat="44.177856982514555" lon="9.621647054288983"><ele>14.2</ele><time>2026-04-19T16:07:19Z</time></trkpt><trkpt lat="44.177779795626414" lon="9.621559860460229"><ele>14.0</ele><time>2026-04-19T16:07:21Z</time></trkpt><trkpt lat="44.1777459914041" lon="9.621482656789027"><ele>14.000000000000002</ele><time>2026-04-19T16:07:24Z</time></trkpt><trkpt lat="44.17768676616032" lon="9.621424277452062"><ele>14.0</ele><time>2026-04-19T16:10:08Z</time></trkpt><trkpt lat="44.17763130552469" lon="9.621370061359295"><ele>14.0</ele><time>2026-04-19T16:10:13Z</time></trkpt><trkpt lat="44.17757102037325" lon="9.62131417532331"><ele>14.0</ele><time>2026-04-19T16:10:16Z</time></trkpt><trkpt lat="44.1775258364042" lon="9.621242188418238"><ele>14.000000000000002</ele><time>2026-04-19T16:10:18Z</time></trkpt><trkpt lat="44.177447815471986" lon="9.621156708487842"><ele>14.0</ele><time>2026-04-19T16:10:20Z</time></trkpt><trkpt lat="44.17737866023183" lon="9.621076443399616"><ele>14.0</ele><time>2026-04-19T16:10:22Z</time></trkpt><trkpt lat="44.17733064610909" lon="9.621004605245426"><ele>13.999999999999998</ele><time>2026-04-19T16:10:24Z</time></trkpt><trkpt lat="44.17722824125525" lon="9.620924514344559"><ele>13.999999999999998</ele><time>2026-04-19T16:10:26Z</time></trkpt><trkpt lat="44.177165191052595" lon="9.620815665066031"><ele>14.0</ele><time>2026-04-19T16:10:28Z</time></trkpt><trkpt lat="44.17709090281842" lon="9.620725092008785"><ele>14.0</ele><time>2026-04-19T16:10:30Z</time></trkpt><trkpt lat="44.177025639310614" lon="9.620645691891108"><ele>14.0</ele><time>2026-04-19T16:10:32Z</time></trkpt><trkpt lat="44.176977581964685" lon="9.620586597912144"><ele>14.0</ele><time>2026-04-19T16:10:34Z</time></trkpt><trkpt lat="44.176917284028065" lon="9.62055948168115"><ele>14.0</ele><time>2026-04-19T16:10:55Z</time></trkpt><trkpt lat="44.176861501733875" lon="9.620487297625285"><ele>14.0</ele><time>2026-04-19T16:10:57Z</time></trkpt><trkpt lat="44.17678171776591" lon="9.620400048919754"><ele>14.0</ele><time>2026-04-19T16:10:59Z</time></trkpt><trkpt lat="44.17674586405691" lon="9.620327886578915"><ele>14.0</ele><time>2026-04-19T16:11:00Z</time></trkpt><trkpt lat="44.176682502376956" lon="9.620290653962398"><ele>14.0</ele><time>2026-04-19T16:11:01Z</time></trkpt><trkpt lat="44.17662798911512" lon="9.620235315333304"><ele>13.833333333333334</ele><time>2026-04-19T16:11:02Z</time></trkpt><trkpt lat="44.17656775195882" lon="9.620177705597005"><ele>13.666666666666668</ele><time>2026-04-19T16:11:03Z</time></trkpt><trkpt lat="44.17650678397885" lon="9.620117126845942"><ele>13.5</ele><time>2026-04-19T16:11:04Z</time></trkpt><trkpt lat="44.17644443986147" lon="9.620055520904904"><ele>13.333333333333332</ele><time>2026-04-19T16:11:05Z</time></trkpt><trkpt lat="44.1763842567776" lon="9.619988706250439"><ele>13.166666666666666</ele><time>2026-04-19T16:11:06Z</time></trkpt><trkpt lat="44.176320260324" lon="9.619924894757062"><ele>13.0</ele><time>2026-04-19T16:11:07Z</time></trkpt><trkpt lat="44.17625592049573" lon="9.61986550160586"><ele>13.0</ele><time>2026-04-19T16:11:08Z</time></trkpt><trkpt lat="44.17619437086496" lon="9.619805280637644"><ele>13.0</ele><time>2026-04-19T16:11:09Z</time></trkpt><trkpt lat="44.17613222243318" lon="9.619744988084976"><ele>13.0</ele><time>2026-04-19T16:11:10Z</time></trkpt><trkpt lat="44.17606862954371" lon="9.619690508554251"><ele>13.0</ele><time>2026-04-19T16:11:11Z</time></trkpt><trkpt lat="44.176009979461334" lon="9.619639771362614"><ele>13.0</ele><time>2026-04-19T16:11:12Z</time></trkpt><trkpt lat="44.17595032197933" lon="9.619586190369224"><ele>13.0</ele><time>2026-04-19T16:11:13Z</time></trkpt><trkpt lat="44.17589389260614" lon="9.619528948865444"><ele>13.0</ele><time>2026-04-19T16:11:14Z</time></trkpt><trkpt lat="44.17583815703054" lon="9.619475015486465"><ele>12.857142857142856</ele><time>2026-04-19T16:11:15Z</time></trkpt><trkpt lat="44.17578147693572" lon="9.619418978567584"><ele>12.714285714285715</ele><time>2026-04-19T16:11:16Z</time></trkpt><trkpt lat="44.1757282179986" lon="9.619361002138062"><ele>12.571428571428571</ele><time>2026-04-19T16:11:17Z</time></trkpt><trkpt lat="44.175672351437356" lon="9.619307752705026"><ele>12.428571428571427</ele><time>2026-04-19T16:11:18Z</time></trkpt><trkpt lat="44.17561588428892" lon="9.619258056463861"><ele>12.285714285714285</ele><time>2026-04-19T16:11:19Z</time></trkpt><trkpt lat="44.17555658648604" lon="9.619218276046746"><ele>12.142857142857142</ele><time>2026-04-19T16:11:20Z</time></trkpt><trkpt lat="44.17549459031545" lon="9.619187455501672"><ele>12.0</ele><time>2026-04-19T16:11:21Z</time></trkpt><trkpt lat="44.175434033536845" lon="9.619151896198456"><ele>11.999999999999998</ele><time>2026-04-19T16:11:22Z</time></trkpt><trkpt lat="44.175377232654455" lon="9.619093909065779"><ele>12.0</ele><time>2026-04-19T16:11:23Z</time></trkpt><trkpt lat="44.17532397422258" lon="9.619025490892763"><ele>12.0</ele><time>2026-04-19T16:11:24Z</time></trkpt><trkpt lat="44.17527091607858" lon="9.61895753622678"><ele>12.0</ele><time>2026-04-19T16:11:25Z</time></trkpt><trkpt lat="44.17521687938688" lon="9.618892087760312"><ele>12.0</ele><time>2026-04-19T16:11:26Z</time></trkpt><trkpt lat="44.175158305281094" lon="9.618827835801685"><ele>11.999999999999998</ele><time>2026-04-19T16:11:27Z</time></trkpt><trkpt lat="44.17509855179309" lon="9.618761532238349"><ele>12.0</ele><time>2026-04-19T16:11:28Z</time></trkpt><trkpt lat="44.17504078239756" lon="9.618690489275455"><ele>11.833333333333334</ele><time>2026-04-19T16:11:29Z</time></trkpt><trkpt lat="44.174980581378016" lon="9.618626613092708"><ele>11.666666666666666</ele><time>2026-04-19T16:11:30Z</time></trkpt><trkpt lat="44.174919415124116" lon="9.61856337118635"><ele>11.5</ele><time>2026-04-19T16:11:31Z</time></trkpt><trkpt lat="44.17486247038161" lon="9.618494745161339"><ele>11.333333333333332</ele><time>2026-04-19T16:11:32Z</time></trkpt><trkpt lat="44.17480315708065" lon="9.618425726205627"><ele>11.166666666666666</ele><time>2026-04-19T16:11:33Z</time></trkpt><trkpt lat="44.1747441944884" lon="9.61835951321723"><ele>11.0</ele><time>2026-04-19T16:11:34Z</time></trkpt><trkpt lat="44.17468574157653" lon="9.618291630613552"><ele>10.833333333333332</ele><time>2026-04-19T16:11:35Z</time></trkpt><trkpt lat="44.17462653855568" lon="9.61822467829794"><ele>10.666666666666666</ele><time>2026-04-19T16:11:36Z</time></trkpt><trkpt lat="44.17456768969461" lon="9.618156545791061"><ele>10.5</ele><time>2026-04-19T16:11:37Z</time></trkpt><trkpt lat="44.1745084428587" lon="9.618090416183762"><ele>10.333333333333334</ele><time>2026-04-19T16:11:38Z</time></trkpt><trkpt lat="44.1744512124632" lon="9.618024303445955"><ele>10.166666666666668</ele><time>2026-04-19T16:11:39Z</time></trkpt><trkpt lat="44.174393715581246" lon="9.617956555017454"><ele>10.0</ele><time>2026-04-19T16:11:40Z</time></trkpt><trkpt lat="44.1743375485795" lon="9.61789229384116"><ele>10.0</ele><time>2026-04-19T16:11:41Z</time></trkpt><trkpt lat="44.17427615476813" lon="9.617827981067444"><ele>10.0</ele><time>2026-04-19T16:11:42Z</time></trkpt><trkpt lat="44.17421999236989" lon="9.6177631395373"><ele>10.0</ele><time>2026-04-19T16:11:43Z</time></trkpt><trkpt lat="44.17416479635865" lon="9.617695446962042"><ele>10.0</ele><time>2026-04-19T16:11:44Z</time></trkpt><trkpt lat="44.174108440068984" lon="9.61762836001993"><ele>10.0</ele><time>2026-04-19T16:11:45Z</time></trkpt><trkpt lat="44.17405525278696" lon="9.617556397731164"><ele>10.0</ele><time>2026-04-19T16:11:46Z</time></trkpt><trkpt lat="44.174007062360296" lon="9.61747564578729"><ele>10.0</ele><time>2026-04-19T16:11:47Z</time></trkpt><trkpt lat="44.17396640157506" lon="9.617387761577104"><ele>9.833333333333334</ele><time>2026-04-19T16:11:48Z</time></trkpt><trkpt lat="44.173929239128334" lon="9.617298996013037"><ele>9.666666666666668</ele><time>2026-04-19T16:11:49Z</time></trkpt><trkpt lat="44.17389220085098" lon="9.617212496342262"><ele>9.5</ele><time>2026-04-19T16:11:50Z</time></trkpt><trkpt lat="44.17385346693449" lon="9.617126321480262"><ele>9.333333333333334</ele><time>2026-04-19T16:11:51Z</time></trkpt><trkpt lat="44.17380193890856" lon="9.616955495436477"><ele>9.166666666666666</ele><time>2026-04-19T16:11:53Z</time></trkpt><trkpt lat="44.17377806822899" lon="9.61684775244996"><ele>9.0</ele><time>2026-04-19T16:11:54Z</time></trkpt><trkpt lat="44.173752854616" lon="9.616740951083488"><ele>9.000000000000002</ele><time>2026-04-19T16:11:55Z</time></trkpt><trkpt lat="44.17372386496884" lon="9.616652703175143"><ele>9.0</ele><time>2026-04-19T16:11:56Z</time></trkpt><trkpt lat="44.173713301413564" lon="9.616555793888688"><ele>9.0</ele><time>2026-04-19T16:11:57Z</time></trkpt><trkpt lat="44.17370493126006" lon="9.616466765149314"><ele>9.0</ele><time>2026-04-19T16:11:58Z</time></trkpt><trkpt lat="44.17369904843655" lon="9.616370048176396"><ele>9.0</ele><time>2026-04-19T16:11:59Z</time></trkpt><trkpt lat="44.17368667760818" lon="9.6162804671854"><ele>9.000000000000002</ele><time>2026-04-19T16:12:00Z</time></trkpt><trkpt lat="44.1736769351559" lon="9.616190854807213"><ele>9.0</ele><time>2026-04-19T16:12:01Z</time></trkpt><trkpt lat="44.173666073223934" lon="9.616102287118018"><ele>8.857142857142858</ele><time>2026-04-19T16:12:02Z</time></trkpt><trkpt lat="44.17365283748379" lon="9.616013326302737"><ele>8.714285714285715</ele><time>2026-04-19T16:12:03Z</time></trkpt><trkpt lat="44.173637022286314" lon="9.615926342274403"><ele>8.571428571428571</ele><time>2026-04-19T16:12:04Z</time></trkpt><trkpt lat="44.17361455348905" lon="9.615840581481061"><ele>8.428571428571429</ele><time>2026-04-19T16:12:05Z</time></trkpt><trkpt lat="44.1735853289417" lon="9.615757076092747"><ele>8.285714285714285</ele><time>2026-04-19T16:12:06Z</time></trkpt><trkpt lat="44.17355497465443" lon="9.615677271221026"><ele>8.142857142857142</ele><time>2026-04-19T16:12:07Z</time></trkpt><trkpt lat="44.17352952776598" lon="9.615595470935231"><ele>8.0</ele><time>2026-04-19T16:12:08Z</time></trkpt><trkpt lat="44.173504686113276" lon="9.61551392525482"><ele>7.999999999999999</ele><time>2026-04-19T16:12:09Z</time></trkpt><trkpt lat="44.17344955795989" lon="9.61535525144629"><ele>8.0</ele><time>2026-04-19T16:12:11Z</time></trkpt><trkpt lat="44.17342012468635" lon="9.615274587185931"><ele>8.0</ele><time>2026-04-19T16:12:12Z</time></trkpt><trkpt lat="44.17339373805501" lon="9.615190637622463"><ele>8.0</ele><time>2026-04-19T16:12:13Z</time></trkpt><trkpt lat="44.17336680505762" lon="9.61510845318832"><ele>7.999999999999999</ele><time>2026-04-19T16:12:14Z</time></trkpt><trkpt lat="44.1733399464692" lon="9.6150256132797"><ele>8.0</ele><time>2026-04-19T16:12:15Z</time></trkpt><trkpt lat="44.17331016487885" lon="9.61494532960016"><ele>8.166666666666666</ele><time>2026-04-19T16:12:16Z</time></trkpt><trkpt lat="44.173279052133125" lon="9.61486143620087"><ele>8.333333333333332</ele><time>2026-04-19T16:12:17Z</time></trkpt><trkpt lat="44.17318995125091" lon="9.614747802699398"><ele>8.5</ele><time>2026-04-19T16:12:19Z</time></trkpt><trkpt lat="44.17312290649421" lon="9.61473264246608"><ele>8.666666666666666</ele><time>2026-04-19T16:12:20Z</time></trkpt><trkpt lat="44.17305156441846" lon="9.614744991859649"><ele>8.833333333333334</ele><time>2026-04-19T16:12:21Z</time></trkpt><trkpt lat="44.17298135856955" lon="9.614766508144639"><ele>9.0</ele><time>2026-04-19T16:12:22Z</time></trkpt><trkpt lat="44.172915198685814" lon="9.61478854686758"><ele>8.5</ele><time>2026-04-19T16:12:23Z</time></trkpt><trkpt lat="44.17284914661879" lon="9.614811347296637"><ele>8.0</ele><time>2026-04-19T16:12:24Z</time></trkpt><trkpt lat="44.172782694304985" lon="9.614829965630811"><ele>7.5</ele><time>2026-04-19T16:12:25Z</time></trkpt><trkpt lat="44.1727115292669" lon="9.614843534370651"><ele>7.0</ele><time>2026-04-19T16:12:26Z</time></trkpt><trkpt lat="44.17257931504116" lon="9.614860893467224"><ele>6.5</ele><time>2026-04-19T16:12:28Z</time></trkpt><trkpt lat="44.17250403705302" lon="9.61484552682011"><ele>6.0</ele><time>2026-04-19T16:12:29Z</time></trkpt><trkpt lat="44.172426550525444" lon="9.614812760970013"><ele>6.166666666666667</ele><time>2026-04-19T16:12:30Z</time></trkpt><trkpt lat="44.17235301396385" lon="9.61475790164553"><ele>6.333333333333334</ele><time>2026-04-19T16:12:31Z</time></trkpt><trkpt lat="44.17228476508075" lon="9.614680997260137"><ele>6.5</ele><time>2026-04-19T16:12:32Z</time></trkpt><trkpt lat="44.1722247521388" lon="9.614585360502646"><ele>6.666666666666667</ele><time>2026-04-19T16:12:33Z</time></trkpt><trkpt lat="44.17216774492926" lon="9.614484844153106"><ele>6.833333333333334</ele><time>2026-04-19T16:12:34Z</time></trkpt><trkpt lat="44.17210838292667" lon="9.61438245475678"><ele>7.0</ele><time>2026-04-19T16:12:35Z</time></trkpt><trkpt lat="44.1720489278512" lon="9.614278971922351"><ele>7.000000000000001</ele><time>2026-04-19T16:12:36Z</time></trkpt><trkpt lat="44.17199704550618" lon="9.61417631871049"><ele>7.0</ele><time>2026-04-19T16:12:37Z</time></trkpt><trkpt lat="44.17195111253009" lon="9.61407530237844"><ele>7.0</ele><time>2026-04-19T16:12:38Z</time></trkpt><trkpt lat="44.17191471315514" lon="9.61396741490552"><ele>7.0</ele><time>2026-04-19T16:12:39Z</time></trkpt><trkpt lat="44.171887518508385" lon="9.61385869209323"><ele>7.000000000000001</ele><time>2026-04-19T16:12:40Z</time></trkpt><trkpt lat="44.17186828224031" lon="9.613749115159019"><ele>7.0</ele><time>2026-04-19T16:12:41Z</time></trkpt><trkpt lat="44.17184660146734" lon="9.61365024939726"><ele>7.000000000000001</ele><time>2026-04-19T16:12:42Z</time></trkpt><trkpt lat="44.17182535360723" lon="9.613546122713462"><ele>7.0</ele><time>2026-04-19T16:12:43Z</time></trkpt><trkpt lat="44.17180609886132" lon="9.613442001411089"><ele>7.0</ele><time>2026-04-19T16:12:44Z</time></trkpt><trkpt lat="44.171785497100316" lon="9.61334028820749"><ele>7.0</ele><time>2026-04-19T16:12:45Z</time></trkpt><trkpt lat="44.17176282056497" lon="9.613236223396013"><ele>7.000000000000001</ele><time>2026-04-19T16:12:46Z</time></trkpt><trkpt lat="44.17174135121272" lon="9.613134571498145"><ele>7.0</ele><time>2026-04-19T16:12:47Z</time></trkpt><trkpt lat="44.17171595240424" lon="9.613034246382172"><ele>7.000000000000001</ele><time>2026-04-19T16:12:48Z</time></trkpt><trkpt lat="44.17168307477426" lon="9.61293069902495"><ele>7.0</ele><time>2026-04-19T16:12:49Z</time></trkpt><trkpt lat="44.17166478815612" lon="9.612825315696924"><ele>7.0</ele><time>2026-04-19T16:12:50Z</time></trkpt><trkpt lat="44.17163870394381" lon="9.61271914089258"><ele>7.0</ele><time>2026-04-19T16:12:51Z</time></trkpt><trkpt lat="44.17161545842476" lon="9.612614241380076"><ele>7.000000000000001</ele><time>2026-04-19T16:12:52Z</time></trkpt><trkpt lat="44.17159389245702" lon="9.612508171532125"><ele>7.0</ele><time>2026-04-19T16:12:53Z</time></trkpt><trkpt lat="44.17157755498158" lon="9.61241433000314"><ele>7.0</ele><time>2026-04-19T16:12:54Z</time></trkpt><trkpt lat="44.171560565605915" lon="9.612313502612196"><ele>7.0</ele><time>2026-04-19T16:12:55Z</time></trkpt><trkpt lat="44.17153128206992" lon="9.612212119826186"><ele>7.0</ele><time>2026-04-19T16:12:56Z</time></trkpt><trkpt lat="44.171509668951195" lon="9.612110936285646"><ele>7.0</ele><time>2026-04-19T16:12:57Z</time></trkpt><trkpt lat="44.1714930166996" lon="9.612017153360924"><ele>7.0</ele><time>2026-04-19T16:12:58Z</time></trkpt><trkpt lat="44.17148110049526" lon="9.611923424762706"><ele>7.0</ele><time>2026-04-19T16:12:59Z</time></trkpt><trkpt lat="44.17144507854822" lon="9.611828174511567"><ele>7.0</ele><time>2026-04-19T16:13:00Z</time></trkpt><trkpt lat="44.17142930285591" lon="9.611735615508088"><ele>7.000000000000001</ele><time>2026-04-19T16:13:01Z</time></trkpt><trkpt lat="44.17140825381597" lon="9.611648670154816"><ele>7.0</ele><time>2026-04-19T16:13:02Z</time></trkpt><trkpt lat="44.171384960118296" lon="9.611475127569522"><ele>7.0</ele><time>2026-04-19T16:13:04Z</time></trkpt><trkpt lat="44.17135168961843" lon="9.611319989096563"><ele>7.0</ele><time>2026-04-19T16:13:06Z</time></trkpt><trkpt lat="44.1713325183572" lon="9.611230594586598"><ele>7.000000000000001</ele><time>2026-04-19T16:13:07Z</time></trkpt><trkpt lat="44.171313885500204" lon="9.611143710620821"><ele>7.0</ele><time>2026-04-19T16:13:08Z</time></trkpt><trkpt lat="44.17129469138745" lon="9.6110542095587"><ele>7.000000000000001</ele><time>2026-04-19T16:13:09Z</time></trkpt><trkpt lat="44.171276345655144" lon="9.610968664429798"><ele>7.0</ele><time>2026-04-19T16:13:10Z</time></trkpt><trkpt lat="44.171241426736884" lon="9.610884288563291"><ele>7.0</ele><time>2026-04-19T16:13:11Z</time></trkpt><trkpt lat="44.1712290458864" lon="9.610797558540721"><ele>7.0</ele><time>2026-04-19T16:13:12Z</time></trkpt><trkpt lat="44.1711952265982" lon="9.610650367630083"><ele>7.000000000000001</ele><time>2026-04-19T16:13:14Z</time></trkpt><trkpt lat="44.171154032386596" lon="9.61050449740101"><ele>7.0</ele><time>2026-04-19T16:13:16Z</time></trkpt><trkpt lat="44.17114138177768" lon="9.610335635692552"><ele>6.833333333333334</ele><time>2026-04-19T16:13:18Z</time></trkpt><trkpt lat="44.17112353000712" lon="9.610251281668594"><ele>6.666666666666667</ele><time>2026-04-19T16:13:19Z</time></trkpt><trkpt lat="44.17105168230198" lon="9.610097635565678"><ele>6.5</ele><time>2026-04-19T16:13:21Z</time></trkpt><trkpt lat="44.171014461147266" lon="9.609950654831536"><ele>6.333333333333334</ele><time>2026-04-19T16:13:23Z</time></trkpt><trkpt lat="44.17099645827904" lon="9.60985869269897"><ele>6.166666666666667</ele><time>2026-04-19T16:13:24Z</time></trkpt><trkpt lat="44.17098242231791" lon="9.60977020173833"><ele>6.0</ele><time>2026-04-19T16:13:25Z</time></trkpt><trkpt lat="44.17096969316816" lon="9.609683103040625"><ele>6.0</ele><time>2026-04-19T16:13:26Z</time></trkpt><trkpt lat="44.170979627481046" lon="9.609587855500372"><ele>6.0</ele><time>2026-04-19T16:13:27Z</time></trkpt><trkpt lat="44.17093679028913" lon="9.609520243950666"><ele>6.0</ele><time>2026-04-19T16:13:28Z</time></trkpt><trkpt lat="44.17090220841202" lon="9.609365803061388"><ele>6.0</ele><time>2026-04-19T16:13:30Z</time></trkpt><trkpt lat="44.170869419185934" lon="9.60923089206495"><ele>6.0</ele><time>2026-04-19T16:13:32Z</time></trkpt><trkpt lat="44.17089591878734" lon="9.609115581246318"><ele>6.0</ele><time>2026-04-19T16:13:34Z</time></trkpt><trkpt lat="44.17098710980137" lon="9.609046442607118"><ele>6.199999999999999</ele><time>2026-04-19T16:13:36Z</time></trkpt><trkpt lat="44.1710791077252" lon="9.608997291723888"><ele>6.3999999999999995</ele><time>2026-04-19T16:13:38Z</time></trkpt><trkpt lat="44.171181932260005" lon="9.608953316600726"><ele>6.6</ele><time>2026-04-19T16:13:40Z</time></trkpt><trkpt lat="44.171261922936424" lon="9.608863449043808"><ele>6.8</ele><time>2026-04-19T16:13:42Z</time></trkpt><trkpt lat="44.17136228260236" lon="9.608801233792583"><ele>7.0</ele><time>2026-04-19T16:13:44Z</time></trkpt><trkpt lat="44.17144917426433" lon="9.6087508986615"><ele>7.000000000000001</ele><time>2026-04-19T16:13:46Z</time></trkpt><trkpt lat="44.171515835631006" lon="9.608704013957523"><ele>7.0</ele><time>2026-04-19T16:13:49Z</time></trkpt><trkpt lat="44.17158070661305" lon="9.608692255237962"><ele>7.0</ele><time>2026-04-19T16:13:51Z</time></trkpt><trkpt lat="44.17164585706439" lon="9.60878088837043"><ele>7.0</ele><time>2026-04-19T16:13:53Z</time></trkpt><trkpt lat="44.17167608560356" lon="9.608918198619985"><ele>7.000000000000001</ele><time>2026-04-19T16:13:55Z</time></trkpt><trkpt lat="44.171702247134576" lon="9.60900407936334"><ele>7.0</ele><time>2026-04-19T16:13:57Z</time></trkpt><trkpt lat="44.17175741991518" lon="9.609059940457295"><ele>8.0</ele><time>2026-04-19T16:14:28Z</time></trkpt></trkseg></trk></gpx>